<?xml version="1.0" encoding="UTF-8" standalone="no" ?>
<gpx xmlns="http://www.topografix.com/GPX/1/1" xmlns:xsi="http://www.w3.org/2001/XMLSchema-instance" xsi:schemaLocation="http://www.topografix.com/GPX/1/1 http://www.topografix.com/GPX/1/1/gpx.xsd" version="1.1" creator="VisuGPX - https://www.visugpx.com">
  <metadata>
    <name>LORGUES CHATEAU LES CROSTES</name>
    <desc><![CDATA[Circuit autour du château des Crostes à Lorgues.]]></desc>
  </metadata>
  <trk>
    <name><![CDATA[Tracé actuel: 01 OCT 2015 13:52]]></name>
    <trkseg>
      <trkpt lat="43.44551" lon="6.38258">
        <ele>140.49</ele>
        <time>2015-10-01T11:52:43Z</time>
      </trkpt>
      <trkpt lat="43.44551" lon="6.38259">
        <ele>140.49</ele>
        <time>2015-10-01T11:52:44Z</time>
      </trkpt>
      <trkpt lat="43.44544" lon="6.3827">
        <ele>140.97</ele>
        <time>2015-10-01T11:52:53Z</time>
      </trkpt>
      <trkpt lat="43.44549" lon="6.38284">
        <ele>141.93</ele>
        <time>2015-10-01T11:53:08Z</time>
      </trkpt>
      <trkpt lat="43.44559" lon="6.38293">
        <ele>141.45</ele>
        <time>2015-10-01T11:53:22Z</time>
      </trkpt>
      <trkpt lat="43.44561" lon="6.38294">
        <ele>140.49</ele>
        <time>2015-10-01T11:53:35Z</time>
      </trkpt>
      <trkpt lat="43.44568" lon="6.38299">
        <ele>140.01</ele>
        <time>2015-10-01T11:53:44Z</time>
      </trkpt>
      <trkpt lat="43.44572" lon="6.38301">
        <ele>140.01</ele>
        <time>2015-10-01T11:53:47Z</time>
      </trkpt>
      <trkpt lat="43.44575" lon="6.38304">
        <ele>144.34</ele>
        <time>2015-10-01T11:53:52Z</time>
      </trkpt>
      <trkpt lat="43.44578" lon="6.38306">
        <ele>147.7</ele>
        <time>2015-10-01T11:53:56Z</time>
      </trkpt>
      <trkpt lat="43.44582" lon="6.38308">
        <ele>151.06</ele>
        <time>2015-10-01T11:54:01Z</time>
      </trkpt>
      <trkpt lat="43.44587" lon="6.38307">
        <ele>154.43</ele>
        <time>2015-10-01T11:54:06Z</time>
      </trkpt>
      <trkpt lat="43.44593" lon="6.3831">
        <ele>157.79</ele>
        <time>2015-10-01T11:54:12Z</time>
      </trkpt>
      <trkpt lat="43.44599" lon="6.38312">
        <ele>160.68</ele>
        <time>2015-10-01T11:54:18Z</time>
      </trkpt>
      <trkpt lat="43.44603" lon="6.38315">
        <ele>163.08</ele>
        <time>2015-10-01T11:54:23Z</time>
      </trkpt>
      <trkpt lat="43.4461" lon="6.38321">
        <ele>166.45</ele>
        <time>2015-10-01T11:54:31Z</time>
      </trkpt>
      <trkpt lat="43.44621" lon="6.38335">
        <ele>169.81</ele>
        <time>2015-10-01T11:54:47Z</time>
      </trkpt>
      <trkpt lat="43.44631" lon="6.38347">
        <ele>172.21</ele>
        <time>2015-10-01T11:55:01Z</time>
      </trkpt>
      <trkpt lat="43.44641" lon="6.38359">
        <ele>172.69</ele>
        <time>2015-10-01T11:55:14Z</time>
      </trkpt>
      <trkpt lat="43.44654" lon="6.3837">
        <ele>173.17</ele>
        <time>2015-10-01T11:55:29Z</time>
      </trkpt>
      <trkpt lat="43.44667" lon="6.38376">
        <ele>173.17</ele>
        <time>2015-10-01T11:55:40Z</time>
      </trkpt>
      <trkpt lat="43.44684" lon="6.38381">
        <ele>173.66</ele>
        <time>2015-10-01T11:55:57Z</time>
      </trkpt>
      <trkpt lat="43.447" lon="6.38383">
        <ele>175.1</ele>
        <time>2015-10-01T11:56:13Z</time>
      </trkpt>
      <trkpt lat="43.44701" lon="6.38383">
        <ele>175.1</ele>
        <time>2015-10-01T11:56:14Z</time>
      </trkpt>
      <trkpt lat="43.44703" lon="6.38383">
        <ele>175.1</ele>
        <time>2015-10-01T11:56:16Z</time>
      </trkpt>
      <trkpt lat="43.4471" lon="6.38384">
        <ele>175.58</ele>
        <time>2015-10-01T11:56:22Z</time>
      </trkpt>
      <trkpt lat="43.44725" lon="6.38392">
        <ele>176.06</ele>
        <time>2015-10-01T11:56:38Z</time>
      </trkpt>
      <trkpt lat="43.44739" lon="6.38404">
        <ele>176.54</ele>
        <time>2015-10-01T11:56:53Z</time>
      </trkpt>
      <trkpt lat="43.44751" lon="6.38418">
        <ele>177.02</ele>
        <time>2015-10-01T11:57:07Z</time>
      </trkpt>
      <trkpt lat="43.44755" lon="6.38425">
        <ele>177.02</ele>
        <time>2015-10-01T11:57:14Z</time>
      </trkpt>
      <trkpt lat="43.44763" lon="6.38437">
        <ele>177.98</ele>
        <time>2015-10-01T11:57:26Z</time>
      </trkpt>
      <trkpt lat="43.44766" lon="6.38444">
        <ele>178.46</ele>
        <time>2015-10-01T11:57:32Z</time>
      </trkpt>
      <trkpt lat="43.44779" lon="6.38459">
        <ele>179.42</ele>
        <time>2015-10-01T11:57:49Z</time>
      </trkpt>
      <trkpt lat="43.44786" lon="6.3847">
        <ele>180.38</ele>
        <time>2015-10-01T11:57:59Z</time>
      </trkpt>
      <trkpt lat="43.44804" lon="6.38481">
        <ele>181.35</ele>
        <time>2015-10-01T11:58:15Z</time>
      </trkpt>
      <trkpt lat="43.44807" lon="6.38482">
        <ele>181.83</ele>
        <time>2015-10-01T11:58:18Z</time>
      </trkpt>
      <trkpt lat="43.4481" lon="6.38483">
        <ele>181.83</ele>
        <time>2015-10-01T11:58:21Z</time>
      </trkpt>
      <trkpt lat="43.44829" lon="6.3849">
        <ele>181.83</ele>
        <time>2015-10-01T11:58:38Z</time>
      </trkpt>
      <trkpt lat="43.44845" lon="6.385">
        <ele>181.83</ele>
        <time>2015-10-01T11:58:55Z</time>
      </trkpt>
      <trkpt lat="43.44853" lon="6.38503">
        <ele>181.83</ele>
        <time>2015-10-01T11:59:03Z</time>
      </trkpt>
      <trkpt lat="43.44859" lon="6.38491">
        <ele>181.83</ele>
        <time>2015-10-01T11:59:19Z</time>
      </trkpt>
      <trkpt lat="43.4486" lon="6.38489">
        <ele>182.31</ele>
        <time>2015-10-01T11:59:39Z</time>
      </trkpt>
      <trkpt lat="43.44861" lon="6.38488">
        <ele>181.83</ele>
        <time>2015-10-01T12:00:05Z</time>
      </trkpt>
      <trkpt lat="43.44861" lon="6.38488">
        <ele>181.83</ele>
        <time>2015-10-01T12:00:27Z</time>
      </trkpt>
      <trkpt lat="43.44862" lon="6.38487">
        <ele>181.83</ele>
        <time>2015-10-01T12:00:47Z</time>
      </trkpt>
      <trkpt lat="43.44862" lon="6.38486">
        <ele>181.83</ele>
        <time>2015-10-01T12:01:04Z</time>
      </trkpt>
      <trkpt lat="43.44862" lon="6.38483">
        <ele>182.31</ele>
        <time>2015-10-01T12:01:19Z</time>
      </trkpt>
      <trkpt lat="43.44863" lon="6.38479">
        <ele>182.31</ele>
        <time>2015-10-01T12:01:34Z</time>
      </trkpt>
      <trkpt lat="43.44872" lon="6.3846">
        <ele>182.79</ele>
        <time>2015-10-01T12:01:50Z</time>
      </trkpt>
      <trkpt lat="43.44886" lon="6.38429">
        <ele>183.27</ele>
        <time>2015-10-01T12:02:06Z</time>
      </trkpt>
      <trkpt lat="43.44898" lon="6.38409">
        <ele>183.27</ele>
        <time>2015-10-01T12:02:22Z</time>
      </trkpt>
      <trkpt lat="43.44908" lon="6.38394">
        <ele>183.75</ele>
        <time>2015-10-01T12:02:38Z</time>
      </trkpt>
      <trkpt lat="43.44911" lon="6.38388">
        <ele>183.75</ele>
        <time>2015-10-01T12:02:44Z</time>
      </trkpt>
      <trkpt lat="43.44919" lon="6.38373">
        <ele>184.23</ele>
        <time>2015-10-01T12:03:00Z</time>
      </trkpt>
      <trkpt lat="43.44926" lon="6.38356">
        <ele>184.23</ele>
        <time>2015-10-01T12:03:18Z</time>
      </trkpt>
      <trkpt lat="43.44934" lon="6.38336">
        <ele>184.71</ele>
        <time>2015-10-01T12:03:34Z</time>
      </trkpt>
      <trkpt lat="43.44943" lon="6.38316">
        <ele>185.19</ele>
        <time>2015-10-01T12:03:52Z</time>
      </trkpt>
      <trkpt lat="43.44951" lon="6.38301">
        <ele>185.67</ele>
        <time>2015-10-01T12:04:07Z</time>
      </trkpt>
      <trkpt lat="43.44954" lon="6.38292">
        <ele>185.67</ele>
        <time>2015-10-01T12:04:14Z</time>
      </trkpt>
      <trkpt lat="43.44959" lon="6.3828">
        <ele>186.15</ele>
        <time>2015-10-01T12:04:25Z</time>
      </trkpt>
      <trkpt lat="43.44969" lon="6.38259">
        <ele>186.15</ele>
        <time>2015-10-01T12:04:42Z</time>
      </trkpt>
      <trkpt lat="43.4498" lon="6.3824">
        <ele>186.63</ele>
        <time>2015-10-01T12:04:59Z</time>
      </trkpt>
      <trkpt lat="43.44988" lon="6.38224">
        <ele>186.63</ele>
        <time>2015-10-01T12:05:14Z</time>
      </trkpt>
      <trkpt lat="43.44996" lon="6.38209">
        <ele>187.11</ele>
        <time>2015-10-01T12:05:29Z</time>
      </trkpt>
      <trkpt lat="43.45004" lon="6.38191">
        <ele>187.59</ele>
        <time>2015-10-01T12:05:45Z</time>
      </trkpt>
      <trkpt lat="43.45012" lon="6.38174">
        <ele>188.08</ele>
        <time>2015-10-01T12:06:01Z</time>
      </trkpt>
      <trkpt lat="43.45018" lon="6.38161">
        <ele>188.56</ele>
        <time>2015-10-01T12:06:15Z</time>
      </trkpt>
      <trkpt lat="43.45025" lon="6.38146">
        <ele>189.52</ele>
        <time>2015-10-01T12:06:30Z</time>
      </trkpt>
      <trkpt lat="43.45032" lon="6.38132">
        <ele>190.48</ele>
        <time>2015-10-01T12:06:46Z</time>
      </trkpt>
      <trkpt lat="43.4504" lon="6.38115">
        <ele>191.44</ele>
        <time>2015-10-01T12:07:03Z</time>
      </trkpt>
      <trkpt lat="43.45045" lon="6.38102">
        <ele>192.4</ele>
        <time>2015-10-01T12:07:18Z</time>
      </trkpt>
      <trkpt lat="43.45049" lon="6.38097">
        <ele>192.88</ele>
        <time>2015-10-01T12:07:32Z</time>
      </trkpt>
      <trkpt lat="43.45058" lon="6.38087">
        <ele>192.88</ele>
        <time>2015-10-01T12:07:47Z</time>
      </trkpt>
      <trkpt lat="43.45061" lon="6.38081">
        <ele>193.36</ele>
        <time>2015-10-01T12:07:54Z</time>
      </trkpt>
      <trkpt lat="43.45071" lon="6.38076">
        <ele>193.36</ele>
        <time>2015-10-01T12:08:07Z</time>
      </trkpt>
      <trkpt lat="43.45072" lon="6.38076">
        <ele>193.36</ele>
        <time>2015-10-01T12:08:08Z</time>
      </trkpt>
      <trkpt lat="43.45084" lon="6.38071">
        <ele>193.84</ele>
        <time>2015-10-01T12:08:22Z</time>
      </trkpt>
      <trkpt lat="43.45096" lon="6.38065">
        <ele>194.32</ele>
        <time>2015-10-01T12:08:35Z</time>
      </trkpt>
      <trkpt lat="43.4511" lon="6.38057">
        <ele>194.32</ele>
        <time>2015-10-01T12:08:51Z</time>
      </trkpt>
      <trkpt lat="43.45116" lon="6.38054">
        <ele>194.8</ele>
        <time>2015-10-01T12:08:58Z</time>
      </trkpt>
      <trkpt lat="43.45121" lon="6.38051">
        <ele>194.8</ele>
        <time>2015-10-01T12:09:03Z</time>
      </trkpt>
      <trkpt lat="43.45126" lon="6.38048">
        <ele>194.8</ele>
        <time>2015-10-01T12:09:08Z</time>
      </trkpt>
      <trkpt lat="43.45131" lon="6.38045">
        <ele>194.8</ele>
        <time>2015-10-01T12:09:14Z</time>
      </trkpt>
      <trkpt lat="43.45148" lon="6.38036">
        <ele>195.77</ele>
        <time>2015-10-01T12:09:31Z</time>
      </trkpt>
      <trkpt lat="43.4516" lon="6.38031">
        <ele>196.25</ele>
        <time>2015-10-01T12:09:46Z</time>
      </trkpt>
      <trkpt lat="43.45172" lon="6.38022">
        <ele>197.21</ele>
        <time>2015-10-01T12:10:00Z</time>
      </trkpt>
      <trkpt lat="43.45187" lon="6.38013">
        <ele>197.69</ele>
        <time>2015-10-01T12:10:16Z</time>
      </trkpt>
      <trkpt lat="43.45201" lon="6.38002">
        <ele>197.69</ele>
        <time>2015-10-01T12:10:31Z</time>
      </trkpt>
      <trkpt lat="43.45203" lon="6.38">
        <ele>198.17</ele>
        <time>2015-10-01T12:10:33Z</time>
      </trkpt>
      <trkpt lat="43.4522" lon="6.3799">
        <ele>197.21</ele>
        <time>2015-10-01T12:10:49Z</time>
      </trkpt>
      <trkpt lat="43.45227" lon="6.37985">
        <ele>197.21</ele>
        <time>2015-10-01T12:10:56Z</time>
      </trkpt>
      <trkpt lat="43.45228" lon="6.37984">
        <ele>197.21</ele>
        <time>2015-10-01T12:10:58Z</time>
      </trkpt>
      <trkpt lat="43.45232" lon="6.37983">
        <ele>197.21</ele>
        <time>2015-10-01T12:11:01Z</time>
      </trkpt>
      <trkpt lat="43.45237" lon="6.37979">
        <ele>197.21</ele>
        <time>2015-10-01T12:11:07Z</time>
      </trkpt>
      <trkpt lat="43.45255" lon="6.37971">
        <ele>198.17</ele>
        <time>2015-10-01T12:11:24Z</time>
      </trkpt>
      <trkpt lat="43.45268" lon="6.37963">
        <ele>197.69</ele>
        <time>2015-10-01T12:11:39Z</time>
      </trkpt>
      <trkpt lat="43.45269" lon="6.37962">
        <ele>197.21</ele>
        <time>2015-10-01T12:11:40Z</time>
      </trkpt>
      <trkpt lat="43.4527" lon="6.37959">
        <ele>197.21</ele>
        <time>2015-10-01T12:11:50Z</time>
      </trkpt>
      <trkpt lat="43.45272" lon="6.37959">
        <ele>197.21</ele>
        <time>2015-10-01T12:12:07Z</time>
      </trkpt>
      <trkpt lat="43.45277" lon="6.37959">
        <ele>196.73</ele>
        <time>2015-10-01T12:12:22Z</time>
      </trkpt>
      <trkpt lat="43.4529" lon="6.37953">
        <ele>196.25</ele>
        <time>2015-10-01T12:12:37Z</time>
      </trkpt>
      <trkpt lat="43.45299" lon="6.37948">
        <ele>196.25</ele>
        <time>2015-10-01T12:12:52Z</time>
      </trkpt>
      <trkpt lat="43.45311" lon="6.37942">
        <ele>196.25</ele>
        <time>2015-10-01T12:13:06Z</time>
      </trkpt>
      <trkpt lat="43.45314" lon="6.3794">
        <ele>196.25</ele>
        <time>2015-10-01T12:13:09Z</time>
      </trkpt>
      <trkpt lat="43.45324" lon="6.37934">
        <ele>196.25</ele>
        <time>2015-10-01T12:13:23Z</time>
      </trkpt>
      <trkpt lat="43.45335" lon="6.37928">
        <ele>196.25</ele>
        <time>2015-10-01T12:13:37Z</time>
      </trkpt>
      <trkpt lat="43.45348" lon="6.37918">
        <ele>196.25</ele>
        <time>2015-10-01T12:13:53Z</time>
      </trkpt>
      <trkpt lat="43.45349" lon="6.37918">
        <ele>196.25</ele>
        <time>2015-10-01T12:13:54Z</time>
      </trkpt>
      <trkpt lat="43.45363" lon="6.37912">
        <ele>196.73</ele>
        <time>2015-10-01T12:14:09Z</time>
      </trkpt>
      <trkpt lat="43.45376" lon="6.37905">
        <ele>197.21</ele>
        <time>2015-10-01T12:14:24Z</time>
      </trkpt>
      <trkpt lat="43.45388" lon="6.37898">
        <ele>197.69</ele>
        <time>2015-10-01T12:14:37Z</time>
      </trkpt>
      <trkpt lat="43.45399" lon="6.37892">
        <ele>198.65</ele>
        <time>2015-10-01T12:14:51Z</time>
      </trkpt>
      <trkpt lat="43.45414" lon="6.37886">
        <ele>199.61</ele>
        <time>2015-10-01T12:15:06Z</time>
      </trkpt>
      <trkpt lat="43.45425" lon="6.37879">
        <ele>200.57</ele>
        <time>2015-10-01T12:15:19Z</time>
      </trkpt>
      <trkpt lat="43.45437" lon="6.37873">
        <ele>200.57</ele>
        <time>2015-10-01T12:15:35Z</time>
      </trkpt>
      <trkpt lat="43.45437" lon="6.37872">
        <ele>197.21</ele>
        <time>2015-10-01T12:15:38Z</time>
      </trkpt>
      <trkpt lat="43.45437" lon="6.37872">
        <ele>202.49</ele>
        <time>2015-10-01T12:15:39Z</time>
      </trkpt>
      <trkpt lat="43.45437" lon="6.37872">
        <ele>198.65</ele>
        <time>2015-10-01T12:15:40Z</time>
      </trkpt>
      <trkpt lat="43.45437" lon="6.37872">
        <ele>204.9</ele>
        <time>2015-10-01T12:15:41Z</time>
      </trkpt>
      <trkpt lat="43.45437" lon="6.37872">
        <ele>201.05</ele>
        <time>2015-10-01T12:15:42Z</time>
      </trkpt>
      <trkpt lat="43.45438" lon="6.37871">
        <ele>201.05</ele>
        <time>2015-10-01T12:15:58Z</time>
      </trkpt>
      <trkpt lat="43.45438" lon="6.37871">
        <ele>201.53</ele>
        <time>2015-10-01T12:16:21Z</time>
      </trkpt>
      <trkpt lat="43.45438" lon="6.3787">
        <ele>201.05</ele>
        <time>2015-10-01T12:16:48Z</time>
      </trkpt>
      <trkpt lat="43.45438" lon="6.37869">
        <ele>201.05</ele>
        <time>2015-10-01T12:17:04Z</time>
      </trkpt>
      <trkpt lat="43.45438" lon="6.37869">
        <ele>201.05</ele>
        <time>2015-10-01T12:17:20Z</time>
      </trkpt>
      <trkpt lat="43.45439" lon="6.37869">
        <ele>201.53</ele>
        <time>2015-10-01T12:17:36Z</time>
      </trkpt>
      <trkpt lat="43.45447" lon="6.37865">
        <ele>202.01</ele>
        <time>2015-10-01T12:17:52Z</time>
      </trkpt>
      <trkpt lat="43.45467" lon="6.37857">
        <ele>202.01</ele>
        <time>2015-10-01T12:18:10Z</time>
      </trkpt>
      <trkpt lat="43.45484" lon="6.37846">
        <ele>202.49</ele>
        <time>2015-10-01T12:18:26Z</time>
      </trkpt>
      <trkpt lat="43.45499" lon="6.37839">
        <ele>202.98</ele>
        <time>2015-10-01T12:18:41Z</time>
      </trkpt>
      <trkpt lat="43.45518" lon="6.3783">
        <ele>203.46</ele>
        <time>2015-10-01T12:19:00Z</time>
      </trkpt>
      <trkpt lat="43.45528" lon="6.37824">
        <ele>203.46</ele>
        <time>2015-10-01T12:19:12Z</time>
      </trkpt>
      <trkpt lat="43.45543" lon="6.37816">
        <ele>202.98</ele>
        <time>2015-10-01T12:19:28Z</time>
      </trkpt>
      <trkpt lat="43.45554" lon="6.3781">
        <ele>202.98</ele>
        <time>2015-10-01T12:19:40Z</time>
      </trkpt>
      <trkpt lat="43.45557" lon="6.37808">
        <ele>202.98</ele>
        <time>2015-10-01T12:19:43Z</time>
      </trkpt>
      <trkpt lat="43.45573" lon="6.37801">
        <ele>202.98</ele>
        <time>2015-10-01T12:19:58Z</time>
      </trkpt>
      <trkpt lat="43.45588" lon="6.37794">
        <ele>202.98</ele>
        <time>2015-10-01T12:20:13Z</time>
      </trkpt>
      <trkpt lat="43.45601" lon="6.37786">
        <ele>202.98</ele>
        <time>2015-10-01T12:20:28Z</time>
      </trkpt>
      <trkpt lat="43.45613" lon="6.37782">
        <ele>202.98</ele>
        <time>2015-10-01T12:20:42Z</time>
      </trkpt>
      <trkpt lat="43.45632" lon="6.37774">
        <ele>202.49</ele>
        <time>2015-10-01T12:20:59Z</time>
      </trkpt>
      <trkpt lat="43.45648" lon="6.37769">
        <ele>201.05</ele>
        <time>2015-10-01T12:21:15Z</time>
      </trkpt>
      <trkpt lat="43.45661" lon="6.37764">
        <ele>200.57</ele>
        <time>2015-10-01T12:21:31Z</time>
      </trkpt>
      <trkpt lat="43.45674" lon="6.3776">
        <ele>200.09</ele>
        <time>2015-10-01T12:21:47Z</time>
      </trkpt>
      <trkpt lat="43.45675" lon="6.37759">
        <ele>200.09</ele>
        <time>2015-10-01T12:21:48Z</time>
      </trkpt>
      <trkpt lat="43.45687" lon="6.3776">
        <ele>199.61</ele>
        <time>2015-10-01T12:21:58Z</time>
      </trkpt>
      <trkpt lat="43.45703" lon="6.37756">
        <ele>199.13</ele>
        <time>2015-10-01T12:22:11Z</time>
      </trkpt>
      <trkpt lat="43.45718" lon="6.37753">
        <ele>198.17</ele>
        <time>2015-10-01T12:22:24Z</time>
      </trkpt>
      <trkpt lat="43.4573" lon="6.37751">
        <ele>198.17</ele>
        <time>2015-10-01T12:22:36Z</time>
      </trkpt>
      <trkpt lat="43.45744" lon="6.37751">
        <ele>198.17</ele>
        <time>2015-10-01T12:22:50Z</time>
      </trkpt>
      <trkpt lat="43.45762" lon="6.37745">
        <ele>198.17</ele>
        <time>2015-10-01T12:23:05Z</time>
      </trkpt>
      <trkpt lat="43.45777" lon="6.37742">
        <ele>198.17</ele>
        <time>2015-10-01T12:23:18Z</time>
      </trkpt>
      <trkpt lat="43.45787" lon="6.37738">
        <ele>198.65</ele>
        <time>2015-10-01T12:23:32Z</time>
      </trkpt>
      <trkpt lat="43.45807" lon="6.37729">
        <ele>197.69</ele>
        <time>2015-10-01T12:23:46Z</time>
      </trkpt>
      <trkpt lat="43.45818" lon="6.37723">
        <ele>197.69</ele>
        <time>2015-10-01T12:23:59Z</time>
      </trkpt>
      <trkpt lat="43.45819" lon="6.37723">
        <ele>197.69</ele>
        <time>2015-10-01T12:24:16Z</time>
      </trkpt>
      <trkpt lat="43.4582" lon="6.37721">
        <ele>198.17</ele>
        <time>2015-10-01T12:24:36Z</time>
      </trkpt>
      <trkpt lat="43.4582" lon="6.3772">
        <ele>198.17</ele>
        <time>2015-10-01T12:24:57Z</time>
      </trkpt>
      <trkpt lat="43.45821" lon="6.37719">
        <ele>198.17</ele>
        <time>2015-10-01T12:25:23Z</time>
      </trkpt>
      <trkpt lat="43.45821" lon="6.37718">
        <ele>198.17</ele>
        <time>2015-10-01T12:25:48Z</time>
      </trkpt>
      <trkpt lat="43.45821" lon="6.37717">
        <ele>198.65</ele>
        <time>2015-10-01T12:26:16Z</time>
      </trkpt>
      <trkpt lat="43.45821" lon="6.37717">
        <ele>198.65</ele>
        <time>2015-10-01T12:26:45Z</time>
      </trkpt>
      <trkpt lat="43.45821" lon="6.37717">
        <ele>199.61</ele>
        <time>2015-10-01T12:27:08Z</time>
      </trkpt>
      <trkpt lat="43.45821" lon="6.37716">
        <ele>199.13</ele>
        <time>2015-10-01T12:27:31Z</time>
      </trkpt>
      <trkpt lat="43.45822" lon="6.37716">
        <ele>199.61</ele>
        <time>2015-10-01T12:27:58Z</time>
      </trkpt>
      <trkpt lat="43.45822" lon="6.37715">
        <ele>200.09</ele>
        <time>2015-10-01T12:28:21Z</time>
      </trkpt>
      <trkpt lat="43.45823" lon="6.37712">
        <ele>200.09</ele>
        <time>2015-10-01T12:28:46Z</time>
      </trkpt>
      <trkpt lat="43.45824" lon="6.37712">
        <ele>200.09</ele>
        <time>2015-10-01T12:29:07Z</time>
      </trkpt>
      <trkpt lat="43.45837" lon="6.37714">
        <ele>199.61</ele>
        <time>2015-10-01T12:29:23Z</time>
      </trkpt>
      <trkpt lat="43.45853" lon="6.37709">
        <ele>199.61</ele>
        <time>2015-10-01T12:29:40Z</time>
      </trkpt>
      <trkpt lat="43.4586" lon="6.37707">
        <ele>199.61</ele>
        <time>2015-10-01T12:29:47Z</time>
      </trkpt>
      <trkpt lat="43.45864" lon="6.37705">
        <ele>199.61</ele>
        <time>2015-10-01T12:29:51Z</time>
      </trkpt>
      <trkpt lat="43.45882" lon="6.37696">
        <ele>199.61</ele>
        <time>2015-10-01T12:30:06Z</time>
      </trkpt>
      <trkpt lat="43.45897" lon="6.37685">
        <ele>199.61</ele>
        <time>2015-10-01T12:30:20Z</time>
      </trkpt>
      <trkpt lat="43.45902" lon="6.37682">
        <ele>199.61</ele>
        <time>2015-10-01T12:30:24Z</time>
      </trkpt>
      <trkpt lat="43.45913" lon="6.37674">
        <ele>199.61</ele>
        <time>2015-10-01T12:30:38Z</time>
      </trkpt>
      <trkpt lat="43.45924" lon="6.3767">
        <ele>199.61</ele>
        <time>2015-10-01T12:30:48Z</time>
      </trkpt>
      <trkpt lat="43.45942" lon="6.3766">
        <ele>198.65</ele>
        <time>2015-10-01T12:31:05Z</time>
      </trkpt>
      <trkpt lat="43.45954" lon="6.37654">
        <ele>198.65</ele>
        <time>2015-10-01T12:31:17Z</time>
      </trkpt>
      <trkpt lat="43.45969" lon="6.37651">
        <ele>198.65</ele>
        <time>2015-10-01T12:31:33Z</time>
      </trkpt>
      <trkpt lat="43.45988" lon="6.37647">
        <ele>198.65</ele>
        <time>2015-10-01T12:31:49Z</time>
      </trkpt>
      <trkpt lat="43.45993" lon="6.37646">
        <ele>198.65</ele>
        <time>2015-10-01T12:31:54Z</time>
      </trkpt>
      <trkpt lat="43.46013" lon="6.37641">
        <ele>199.13</ele>
        <time>2015-10-01T12:32:11Z</time>
      </trkpt>
      <trkpt lat="43.46032" lon="6.37639">
        <ele>200.09</ele>
        <time>2015-10-01T12:32:26Z</time>
      </trkpt>
      <trkpt lat="43.46047" lon="6.37638">
        <ele>200.57</ele>
        <time>2015-10-01T12:32:43Z</time>
      </trkpt>
      <trkpt lat="43.46065" lon="6.37626">
        <ele>200.09</ele>
        <time>2015-10-01T12:32:59Z</time>
      </trkpt>
      <trkpt lat="43.46075" lon="6.3762">
        <ele>200.09</ele>
        <time>2015-10-01T12:33:07Z</time>
      </trkpt>
      <trkpt lat="43.46087" lon="6.37614">
        <ele>199.61</ele>
        <time>2015-10-01T12:33:22Z</time>
      </trkpt>
      <trkpt lat="43.46104" lon="6.37601">
        <ele>200.09</ele>
        <time>2015-10-01T12:33:39Z</time>
      </trkpt>
      <trkpt lat="43.46121" lon="6.3759">
        <ele>200.09</ele>
        <time>2015-10-01T12:33:57Z</time>
      </trkpt>
      <trkpt lat="43.46135" lon="6.3758">
        <ele>200.09</ele>
        <time>2015-10-01T12:34:11Z</time>
      </trkpt>
      <trkpt lat="43.46154" lon="6.37566">
        <ele>200.09</ele>
        <time>2015-10-01T12:34:29Z</time>
      </trkpt>
      <trkpt lat="43.46174" lon="6.37554">
        <ele>200.57</ele>
        <time>2015-10-01T12:34:47Z</time>
      </trkpt>
      <trkpt lat="43.4619" lon="6.37536">
        <ele>201.05</ele>
        <time>2015-10-01T12:35:04Z</time>
      </trkpt>
      <trkpt lat="43.46192" lon="6.37534">
        <ele>201.05</ele>
        <time>2015-10-01T12:35:06Z</time>
      </trkpt>
      <trkpt lat="43.46205" lon="6.37518">
        <ele>201.53</ele>
        <time>2015-10-01T12:35:22Z</time>
      </trkpt>
      <trkpt lat="43.46208" lon="6.37513">
        <ele>202.01</ele>
        <time>2015-10-01T12:35:38Z</time>
      </trkpt>
      <trkpt lat="43.46206" lon="6.37509">
        <ele>202.01</ele>
        <time>2015-10-01T12:35:42Z</time>
      </trkpt>
      <trkpt lat="43.46197" lon="6.37491">
        <ele>202.98</ele>
        <time>2015-10-01T12:35:58Z</time>
      </trkpt>
      <trkpt lat="43.46192" lon="6.37487">
        <ele>202.98</ele>
        <time>2015-10-01T12:36:04Z</time>
      </trkpt>
      <trkpt lat="43.46178" lon="6.37466">
        <ele>202.01</ele>
        <time>2015-10-01T12:36:22Z</time>
      </trkpt>
      <trkpt lat="43.46171" lon="6.37455">
        <ele>201.05</ele>
        <time>2015-10-01T12:36:33Z</time>
      </trkpt>
      <trkpt lat="43.46168" lon="6.37454">
        <ele>201.05</ele>
        <time>2015-10-01T12:36:35Z</time>
      </trkpt>
      <trkpt lat="43.46164" lon="6.37449">
        <ele>200.57</ele>
        <time>2015-10-01T12:36:40Z</time>
      </trkpt>
      <trkpt lat="43.46162" lon="6.37448">
        <ele>200.57</ele>
        <time>2015-10-01T12:36:42Z</time>
      </trkpt>
      <trkpt lat="43.46152" lon="6.37434">
        <ele>198.65</ele>
        <time>2015-10-01T12:36:58Z</time>
      </trkpt>
      <trkpt lat="43.46152" lon="6.37424">
        <ele>197.69</ele>
        <time>2015-10-01T12:37:12Z</time>
      </trkpt>
      <trkpt lat="43.46152" lon="6.37423">
        <ele>197.69</ele>
        <time>2015-10-01T12:37:33Z</time>
      </trkpt>
      <trkpt lat="43.46152" lon="6.37422">
        <ele>197.69</ele>
        <time>2015-10-01T12:37:50Z</time>
      </trkpt>
      <trkpt lat="43.46152" lon="6.37421">
        <ele>197.69</ele>
        <time>2015-10-01T12:38:13Z</time>
      </trkpt>
      <trkpt lat="43.46154" lon="6.37414">
        <ele>197.69</ele>
        <time>2015-10-01T12:38:19Z</time>
      </trkpt>
      <trkpt lat="43.46153" lon="6.374">
        <ele>196.73</ele>
        <time>2015-10-01T12:38:30Z</time>
      </trkpt>
      <trkpt lat="43.46159" lon="6.37376">
        <ele>196.25</ele>
        <time>2015-10-01T12:38:45Z</time>
      </trkpt>
      <trkpt lat="43.4616" lon="6.37354">
        <ele>195.77</ele>
        <time>2015-10-01T12:39:01Z</time>
      </trkpt>
      <trkpt lat="43.4616" lon="6.3733">
        <ele>195.77</ele>
        <time>2015-10-01T12:39:15Z</time>
      </trkpt>
      <trkpt lat="43.4616" lon="6.37327">
        <ele>195.77</ele>
        <time>2015-10-01T12:39:17Z</time>
      </trkpt>
      <trkpt lat="43.46164" lon="6.37315">
        <ele>195.77</ele>
        <time>2015-10-01T12:39:25Z</time>
      </trkpt>
      <trkpt lat="43.46165" lon="6.373">
        <ele>196.25</ele>
        <time>2015-10-01T12:39:35Z</time>
      </trkpt>
      <trkpt lat="43.46165" lon="6.37296">
        <ele>196.25</ele>
        <time>2015-10-01T12:39:37Z</time>
      </trkpt>
      <trkpt lat="43.46166" lon="6.37293">
        <ele>196.73</ele>
        <time>2015-10-01T12:39:39Z</time>
      </trkpt>
      <trkpt lat="43.46167" lon="6.37274">
        <ele>197.69</ele>
        <time>2015-10-01T12:39:54Z</time>
      </trkpt>
      <trkpt lat="43.46165" lon="6.37271">
        <ele>197.21</ele>
        <time>2015-10-01T12:40:05Z</time>
      </trkpt>
      <trkpt lat="43.46155" lon="6.37262">
        <ele>196.73</ele>
        <time>2015-10-01T12:40:17Z</time>
      </trkpt>
      <trkpt lat="43.46145" lon="6.37256">
        <ele>195.77</ele>
        <time>2015-10-01T12:40:28Z</time>
      </trkpt>
      <trkpt lat="43.46135" lon="6.37246">
        <ele>194.32</ele>
        <time>2015-10-01T12:40:42Z</time>
      </trkpt>
      <trkpt lat="43.46126" lon="6.37236">
        <ele>193.36</ele>
        <time>2015-10-01T12:40:54Z</time>
      </trkpt>
      <trkpt lat="43.46115" lon="6.37225">
        <ele>191.92</ele>
        <time>2015-10-01T12:41:10Z</time>
      </trkpt>
      <trkpt lat="43.46106" lon="6.37214">
        <ele>190.48</ele>
        <time>2015-10-01T12:41:25Z</time>
      </trkpt>
      <trkpt lat="43.46095" lon="6.37205">
        <ele>189.04</ele>
        <time>2015-10-01T12:41:39Z</time>
      </trkpt>
      <trkpt lat="43.46086" lon="6.37204">
        <ele>188.08</ele>
        <time>2015-10-01T12:41:52Z</time>
      </trkpt>
      <trkpt lat="43.4608" lon="6.37194">
        <ele>186.15</ele>
        <time>2015-10-01T12:42:06Z</time>
      </trkpt>
      <trkpt lat="43.46074" lon="6.37187">
        <ele>185.19</ele>
        <time>2015-10-01T12:42:19Z</time>
      </trkpt>
      <trkpt lat="43.46068" lon="6.37178">
        <ele>183.27</ele>
        <time>2015-10-01T12:42:35Z</time>
      </trkpt>
      <trkpt lat="43.46064" lon="6.37174">
        <ele>182.31</ele>
        <time>2015-10-01T12:42:45Z</time>
      </trkpt>
      <trkpt lat="43.46058" lon="6.37168">
        <ele>180.87</ele>
        <time>2015-10-01T12:42:51Z</time>
      </trkpt>
      <trkpt lat="43.4605" lon="6.37156">
        <ele>178.46</ele>
        <time>2015-10-01T12:43:06Z</time>
      </trkpt>
      <trkpt lat="43.46045" lon="6.37149">
        <ele>177.02</ele>
        <time>2015-10-01T12:43:15Z</time>
      </trkpt>
      <trkpt lat="43.46036" lon="6.37135">
        <ele>175.1</ele>
        <time>2015-10-01T12:43:29Z</time>
      </trkpt>
      <trkpt lat="43.46028" lon="6.37118">
        <ele>172.69</ele>
        <time>2015-10-01T12:43:45Z</time>
      </trkpt>
      <trkpt lat="43.46019" lon="6.37104">
        <ele>170.77</ele>
        <time>2015-10-01T12:43:59Z</time>
      </trkpt>
      <trkpt lat="43.46009" lon="6.37092">
        <ele>169.33</ele>
        <time>2015-10-01T12:44:11Z</time>
      </trkpt>
      <trkpt lat="43.46006" lon="6.37088">
        <ele>168.37</ele>
        <time>2015-10-01T12:44:25Z</time>
      </trkpt>
      <trkpt lat="43.45996" lon="6.37076">
        <ele>166.45</ele>
        <time>2015-10-01T12:44:39Z</time>
      </trkpt>
      <trkpt lat="43.45985" lon="6.37067">
        <ele>165</ele>
        <time>2015-10-01T12:44:52Z</time>
      </trkpt>
      <trkpt lat="43.45975" lon="6.37056">
        <ele>163.56</ele>
        <time>2015-10-01T12:45:03Z</time>
      </trkpt>
      <trkpt lat="43.45965" lon="6.37057">
        <ele>162.6</ele>
        <time>2015-10-01T12:45:12Z</time>
      </trkpt>
      <trkpt lat="43.45955" lon="6.37066">
        <ele>160.68</ele>
        <time>2015-10-01T12:45:25Z</time>
      </trkpt>
      <trkpt lat="43.45944" lon="6.37072">
        <ele>158.75</ele>
        <time>2015-10-01T12:45:39Z</time>
      </trkpt>
      <trkpt lat="43.45938" lon="6.37079">
        <ele>157.79</ele>
        <time>2015-10-01T12:45:47Z</time>
      </trkpt>
      <trkpt lat="43.45929" lon="6.37084">
        <ele>156.35</ele>
        <time>2015-10-01T12:46:00Z</time>
      </trkpt>
      <trkpt lat="43.45921" lon="6.37089">
        <ele>155.39</ele>
        <time>2015-10-01T12:46:13Z</time>
      </trkpt>
      <trkpt lat="43.45911" lon="6.3709">
        <ele>154.91</ele>
        <time>2015-10-01T12:46:25Z</time>
      </trkpt>
      <trkpt lat="43.45896" lon="6.37088">
        <ele>154.43</ele>
        <time>2015-10-01T12:46:39Z</time>
      </trkpt>
      <trkpt lat="43.45886" lon="6.37089">
        <ele>154.43</ele>
        <time>2015-10-01T12:46:48Z</time>
      </trkpt>
      <trkpt lat="43.45879" lon="6.37086">
        <ele>153.95</ele>
        <time>2015-10-01T12:47:03Z</time>
      </trkpt>
      <trkpt lat="43.45877" lon="6.37089">
        <ele>153.95</ele>
        <time>2015-10-01T12:47:15Z</time>
      </trkpt>
      <trkpt lat="43.45878" lon="6.37091">
        <ele>153.47</ele>
        <time>2015-10-01T12:47:35Z</time>
      </trkpt>
      <trkpt lat="43.45878" lon="6.37091">
        <ele>153.95</ele>
        <time>2015-10-01T12:47:52Z</time>
      </trkpt>
      <trkpt lat="43.45876" lon="6.37088">
        <ele>153.95</ele>
        <time>2015-10-01T12:48:06Z</time>
      </trkpt>
      <trkpt lat="43.45875" lon="6.37087">
        <ele>153.95</ele>
        <time>2015-10-01T12:48:20Z</time>
      </trkpt>
      <trkpt lat="43.45874" lon="6.37069">
        <ele>152.99</ele>
        <time>2015-10-01T12:48:35Z</time>
      </trkpt>
      <trkpt lat="43.45873" lon="6.37053">
        <ele>152.03</ele>
        <time>2015-10-01T12:48:46Z</time>
      </trkpt>
      <trkpt lat="43.4587" lon="6.37036">
        <ele>151.06</ele>
        <time>2015-10-01T12:48:58Z</time>
      </trkpt>
      <trkpt lat="43.4587" lon="6.37028">
        <ele>150.58</ele>
        <time>2015-10-01T12:49:06Z</time>
      </trkpt>
      <trkpt lat="43.45867" lon="6.37016">
        <ele>150.1</ele>
        <time>2015-10-01T12:49:15Z</time>
      </trkpt>
      <trkpt lat="43.45868" lon="6.3701">
        <ele>150.1</ele>
        <time>2015-10-01T12:49:20Z</time>
      </trkpt>
      <trkpt lat="43.45866" lon="6.37001">
        <ele>149.62</ele>
        <time>2015-10-01T12:49:34Z</time>
      </trkpt>
      <trkpt lat="43.45867" lon="6.37001">
        <ele>149.62</ele>
        <time>2015-10-01T12:49:51Z</time>
      </trkpt>
      <trkpt lat="43.45862" lon="6.37001">
        <ele>150.58</ele>
        <time>2015-10-01T12:50:04Z</time>
      </trkpt>
      <trkpt lat="43.45854" lon="6.36999">
        <ele>151.06</ele>
        <time>2015-10-01T12:50:16Z</time>
      </trkpt>
      <trkpt lat="43.45843" lon="6.37001">
        <ele>151.54</ele>
        <time>2015-10-01T12:50:28Z</time>
      </trkpt>
      <trkpt lat="43.45833" lon="6.37001">
        <ele>151.54</ele>
        <time>2015-10-01T12:50:42Z</time>
      </trkpt>
      <trkpt lat="43.4583" lon="6.37002">
        <ele>151.54</ele>
        <time>2015-10-01T12:51:02Z</time>
      </trkpt>
      <trkpt lat="43.4583" lon="6.37002">
        <ele>151.54</ele>
        <time>2015-10-01T12:51:27Z</time>
      </trkpt>
      <trkpt lat="43.45827" lon="6.37002">
        <ele>151.54</ele>
        <time>2015-10-01T12:51:34Z</time>
      </trkpt>
      <trkpt lat="43.45812" lon="6.37005">
        <ele>152.03</ele>
        <time>2015-10-01T12:51:50Z</time>
      </trkpt>
      <trkpt lat="43.458" lon="6.37007">
        <ele>152.03</ele>
        <time>2015-10-01T12:52:03Z</time>
      </trkpt>
      <trkpt lat="43.45789" lon="6.3701">
        <ele>152.51</ele>
        <time>2015-10-01T12:52:15Z</time>
      </trkpt>
      <trkpt lat="43.45786" lon="6.3701">
        <ele>152.51</ele>
        <time>2015-10-01T12:52:17Z</time>
      </trkpt>
      <trkpt lat="43.45782" lon="6.37012">
        <ele>152.99</ele>
        <time>2015-10-01T12:52:22Z</time>
      </trkpt>
      <trkpt lat="43.45779" lon="6.37014">
        <ele>152.99</ele>
        <time>2015-10-01T12:52:25Z</time>
      </trkpt>
      <trkpt lat="43.45768" lon="6.37018">
        <ele>152.99</ele>
        <time>2015-10-01T12:52:36Z</time>
      </trkpt>
      <trkpt lat="43.45764" lon="6.37019">
        <ele>152.99</ele>
        <time>2015-10-01T12:52:39Z</time>
      </trkpt>
      <trkpt lat="43.4576" lon="6.3702">
        <ele>152.99</ele>
        <time>2015-10-01T12:52:43Z</time>
      </trkpt>
      <trkpt lat="43.45756" lon="6.37024">
        <ele>152.51</ele>
        <time>2015-10-01T12:52:49Z</time>
      </trkpt>
      <trkpt lat="43.45742" lon="6.37028">
        <ele>151.54</ele>
        <time>2015-10-01T12:53:05Z</time>
      </trkpt>
      <trkpt lat="43.45741" lon="6.37028">
        <ele>151.54</ele>
        <time>2015-10-01T12:53:08Z</time>
      </trkpt>
      <trkpt lat="43.45729" lon="6.37032">
        <ele>149.62</ele>
        <time>2015-10-01T12:53:21Z</time>
      </trkpt>
      <trkpt lat="43.45728" lon="6.37033">
        <ele>149.14</ele>
        <time>2015-10-01T12:53:22Z</time>
      </trkpt>
      <trkpt lat="43.45725" lon="6.37033">
        <ele>149.14</ele>
        <time>2015-10-01T12:53:24Z</time>
      </trkpt>
      <trkpt lat="43.4572" lon="6.37032">
        <ele>148.66</ele>
        <time>2015-10-01T12:53:28Z</time>
      </trkpt>
      <trkpt lat="43.45716" lon="6.37034">
        <ele>148.18</ele>
        <time>2015-10-01T12:53:31Z</time>
      </trkpt>
      <trkpt lat="43.45698" lon="6.37036">
        <ele>147.7</ele>
        <time>2015-10-01T12:53:45Z</time>
      </trkpt>
      <trkpt lat="43.45688" lon="6.37036">
        <ele>147.7</ele>
        <time>2015-10-01T12:53:58Z</time>
      </trkpt>
      <trkpt lat="43.45677" lon="6.37035">
        <ele>147.7</ele>
        <time>2015-10-01T12:54:11Z</time>
      </trkpt>
      <trkpt lat="43.45662" lon="6.37034">
        <ele>149.14</ele>
        <time>2015-10-01T12:54:25Z</time>
      </trkpt>
      <trkpt lat="43.45658" lon="6.37031">
        <ele>148.18</ele>
        <time>2015-10-01T12:54:31Z</time>
      </trkpt>
      <trkpt lat="43.45653" lon="6.37026">
        <ele>148.66</ele>
        <time>2015-10-01T12:54:40Z</time>
      </trkpt>
      <trkpt lat="43.45651" lon="6.37025">
        <ele>148.18</ele>
        <time>2015-10-01T12:54:55Z</time>
      </trkpt>
      <trkpt lat="43.4565" lon="6.37027">
        <ele>148.66</ele>
        <time>2015-10-01T12:55:09Z</time>
      </trkpt>
      <trkpt lat="43.45648" lon="6.37029">
        <ele>149.14</ele>
        <time>2015-10-01T12:55:26Z</time>
      </trkpt>
      <trkpt lat="43.45648" lon="6.3703">
        <ele>149.14</ele>
        <time>2015-10-01T12:55:38Z</time>
      </trkpt>
      <trkpt lat="43.4564" lon="6.37029">
        <ele>150.1</ele>
        <time>2015-10-01T12:55:53Z</time>
      </trkpt>
      <trkpt lat="43.45632" lon="6.37026">
        <ele>151.06</ele>
        <time>2015-10-01T12:56:05Z</time>
      </trkpt>
      <trkpt lat="43.45627" lon="6.37023">
        <ele>152.51</ele>
        <time>2015-10-01T12:56:22Z</time>
      </trkpt>
      <trkpt lat="43.45615" lon="6.37021">
        <ele>153.47</ele>
        <time>2015-10-01T12:56:34Z</time>
      </trkpt>
      <trkpt lat="43.4561" lon="6.37032">
        <ele>154.43</ele>
        <time>2015-10-01T12:56:47Z</time>
      </trkpt>
      <trkpt lat="43.45608" lon="6.37034">
        <ele>154.43</ele>
        <time>2015-10-01T12:57:02Z</time>
      </trkpt>
      <trkpt lat="43.45606" lon="6.37033">
        <ele>154.91</ele>
        <time>2015-10-01T12:57:22Z</time>
      </trkpt>
      <trkpt lat="43.45605" lon="6.37032">
        <ele>154.91</ele>
        <time>2015-10-01T12:57:42Z</time>
      </trkpt>
      <trkpt lat="43.45605" lon="6.37033">
        <ele>154.91</ele>
        <time>2015-10-01T12:58:07Z</time>
      </trkpt>
      <trkpt lat="43.45604" lon="6.37033">
        <ele>154.91</ele>
        <time>2015-10-01T12:58:33Z</time>
      </trkpt>
      <trkpt lat="43.45605" lon="6.37033">
        <ele>154.91</ele>
        <time>2015-10-01T12:58:52Z</time>
      </trkpt>
      <trkpt lat="43.45605" lon="6.37034">
        <ele>154.91</ele>
        <time>2015-10-01T12:59:10Z</time>
      </trkpt>
      <trkpt lat="43.45605" lon="6.37035">
        <ele>154.91</ele>
        <time>2015-10-01T12:59:34Z</time>
      </trkpt>
      <trkpt lat="43.45605" lon="6.37036">
        <ele>154.91</ele>
        <time>2015-10-01T12:59:56Z</time>
      </trkpt>
      <trkpt lat="43.45601" lon="6.37042">
        <ele>156.35</ele>
        <time>2015-10-01T13:00:10Z</time>
      </trkpt>
      <trkpt lat="43.45598" lon="6.37053">
        <ele>157.31</ele>
        <time>2015-10-01T13:00:23Z</time>
      </trkpt>
      <trkpt lat="43.456" lon="6.37068">
        <ele>158.27</ele>
        <time>2015-10-01T13:00:36Z</time>
      </trkpt>
      <trkpt lat="43.45603" lon="6.37078">
        <ele>159.24</ele>
        <time>2015-10-01T13:00:47Z</time>
      </trkpt>
      <trkpt lat="43.45608" lon="6.37094">
        <ele>160.2</ele>
        <time>2015-10-01T13:01:03Z</time>
      </trkpt>
      <trkpt lat="43.45608" lon="6.37095">
        <ele>160.68</ele>
        <time>2015-10-01T13:01:17Z</time>
      </trkpt>
      <trkpt lat="43.45606" lon="6.37109">
        <ele>162.12</ele>
        <time>2015-10-01T13:01:34Z</time>
      </trkpt>
      <trkpt lat="43.45609" lon="6.37123">
        <ele>163.08</ele>
        <time>2015-10-01T13:01:48Z</time>
      </trkpt>
      <trkpt lat="43.45608" lon="6.37125">
        <ele>163.08</ele>
        <time>2015-10-01T13:02:04Z</time>
      </trkpt>
      <trkpt lat="43.45608" lon="6.37125">
        <ele>163.08</ele>
        <time>2015-10-01T13:02:07Z</time>
      </trkpt>
      <trkpt lat="43.45607" lon="6.37139">
        <ele>165</ele>
        <time>2015-10-01T13:02:20Z</time>
      </trkpt>
      <trkpt lat="43.45602" lon="6.37151">
        <ele>166.45</ele>
        <time>2015-10-01T13:02:36Z</time>
      </trkpt>
      <trkpt lat="43.45598" lon="6.37157">
        <ele>166.93</ele>
        <time>2015-10-01T13:02:50Z</time>
      </trkpt>
      <trkpt lat="43.45594" lon="6.37166">
        <ele>167.41</ele>
        <time>2015-10-01T13:03:04Z</time>
      </trkpt>
      <trkpt lat="43.45591" lon="6.37168">
        <ele>167.41</ele>
        <time>2015-10-01T13:03:32Z</time>
      </trkpt>
      <trkpt lat="43.45593" lon="6.37173">
        <ele>167.89</ele>
        <time>2015-10-01T13:03:59Z</time>
      </trkpt>
      <trkpt lat="43.45593" lon="6.37174">
        <ele>167.89</ele>
        <time>2015-10-01T13:04:22Z</time>
      </trkpt>
      <trkpt lat="43.45594" lon="6.37177">
        <ele>167.89</ele>
        <time>2015-10-01T13:04:39Z</time>
      </trkpt>
      <trkpt lat="43.45596" lon="6.37194">
        <ele>168.85</ele>
        <time>2015-10-01T13:04:55Z</time>
      </trkpt>
      <trkpt lat="43.45597" lon="6.37202">
        <ele>168.85</ele>
        <time>2015-10-01T13:05:07Z</time>
      </trkpt>
      <trkpt lat="43.45597" lon="6.37207">
        <ele>169.33</ele>
        <time>2015-10-01T13:05:28Z</time>
      </trkpt>
      <trkpt lat="43.45597" lon="6.37209">
        <ele>169.33</ele>
        <time>2015-10-01T13:05:44Z</time>
      </trkpt>
      <trkpt lat="43.45597" lon="6.37211">
        <ele>169.81</ele>
        <time>2015-10-01T13:05:59Z</time>
      </trkpt>
      <trkpt lat="43.45599" lon="6.37213">
        <ele>169.81</ele>
        <time>2015-10-01T13:06:25Z</time>
      </trkpt>
      <trkpt lat="43.45597" lon="6.37216">
        <ele>170.29</ele>
        <time>2015-10-01T13:06:48Z</time>
      </trkpt>
      <trkpt lat="43.45592" lon="6.37219">
        <ele>170.77</ele>
        <time>2015-10-01T13:07:04Z</time>
      </trkpt>
      <trkpt lat="43.45592" lon="6.3722">
        <ele>170.77</ele>
        <time>2015-10-01T13:07:29Z</time>
      </trkpt>
      <trkpt lat="43.45591" lon="6.3722">
        <ele>170.77</ele>
        <time>2015-10-01T13:07:50Z</time>
      </trkpt>
      <trkpt lat="43.45589" lon="6.37223">
        <ele>170.77</ele>
        <time>2015-10-01T13:08:03Z</time>
      </trkpt>
      <trkpt lat="43.45589" lon="6.37227">
        <ele>170.77</ele>
        <time>2015-10-01T13:08:24Z</time>
      </trkpt>
      <trkpt lat="43.4559" lon="6.37229">
        <ele>170.77</ele>
        <time>2015-10-01T13:08:48Z</time>
      </trkpt>
      <trkpt lat="43.4559" lon="6.3723">
        <ele>170.77</ele>
        <time>2015-10-01T13:08:57Z</time>
      </trkpt>
      <trkpt lat="43.45591" lon="6.37235">
        <ele>170.77</ele>
        <time>2015-10-01T13:09:14Z</time>
      </trkpt>
      <trkpt lat="43.45592" lon="6.37236">
        <ele>170.77</ele>
        <time>2015-10-01T13:09:15Z</time>
      </trkpt>
      <trkpt lat="43.45594" lon="6.3725">
        <ele>170.29</ele>
        <time>2015-10-01T13:09:30Z</time>
      </trkpt>
      <trkpt lat="43.45597" lon="6.37269">
        <ele>170.77</ele>
        <time>2015-10-01T13:09:44Z</time>
      </trkpt>
      <trkpt lat="43.45601" lon="6.37274">
        <ele>171.73</ele>
        <time>2015-10-01T13:09:57Z</time>
      </trkpt>
      <trkpt lat="43.45601" lon="6.37277">
        <ele>171.73</ele>
        <time>2015-10-01T13:10:13Z</time>
      </trkpt>
      <trkpt lat="43.45603" lon="6.37279">
        <ele>171.73</ele>
        <time>2015-10-01T13:10:32Z</time>
      </trkpt>
      <trkpt lat="43.45604" lon="6.37274">
        <ele>171.73</ele>
        <time>2015-10-01T13:10:46Z</time>
      </trkpt>
      <trkpt lat="43.45605" lon="6.37272">
        <ele>171.73</ele>
        <time>2015-10-01T13:11:06Z</time>
      </trkpt>
      <trkpt lat="43.45603" lon="6.37271">
        <ele>171.25</ele>
        <time>2015-10-01T13:11:16Z</time>
      </trkpt>
      <trkpt lat="43.45601" lon="6.37263">
        <ele>170.77</ele>
        <time>2015-10-01T13:11:32Z</time>
      </trkpt>
      <trkpt lat="43.456" lon="6.37245">
        <ele>170.77</ele>
        <time>2015-10-01T13:11:47Z</time>
      </trkpt>
      <trkpt lat="43.45597" lon="6.37228">
        <ele>170.77</ele>
        <time>2015-10-01T13:12:01Z</time>
      </trkpt>
      <trkpt lat="43.45601" lon="6.37224">
        <ele>170.29</ele>
        <time>2015-10-01T13:12:12Z</time>
      </trkpt>
      <trkpt lat="43.45601" lon="6.37223">
        <ele>170.29</ele>
        <time>2015-10-01T13:12:31Z</time>
      </trkpt>
      <trkpt lat="43.45604" lon="6.37221">
        <ele>170.29</ele>
        <time>2015-10-01T13:12:44Z</time>
      </trkpt>
      <trkpt lat="43.45604" lon="6.37218">
        <ele>170.29</ele>
        <time>2015-10-01T13:13:06Z</time>
      </trkpt>
      <trkpt lat="43.45604" lon="6.37214">
        <ele>170.29</ele>
        <time>2015-10-01T13:13:25Z</time>
      </trkpt>
      <trkpt lat="43.45603" lon="6.37213">
        <ele>170.29</ele>
        <time>2015-10-01T13:13:38Z</time>
      </trkpt>
      <trkpt lat="43.45603" lon="6.37211">
        <ele>169.81</ele>
        <time>2015-10-01T13:13:49Z</time>
      </trkpt>
      <trkpt lat="43.45603" lon="6.37209">
        <ele>169.81</ele>
        <time>2015-10-01T13:13:54Z</time>
      </trkpt>
      <trkpt lat="43.45602" lon="6.37211">
        <ele>169.81</ele>
        <time>2015-10-01T13:14:12Z</time>
      </trkpt>
      <trkpt lat="43.456" lon="6.37211">
        <ele>169.81</ele>
        <time>2015-10-01T13:14:23Z</time>
      </trkpt>
      <trkpt lat="43.45599" lon="6.37212">
        <ele>169.81</ele>
        <time>2015-10-01T13:14:38Z</time>
      </trkpt>
      <trkpt lat="43.45598" lon="6.37211">
        <ele>169.81</ele>
        <time>2015-10-01T13:15:05Z</time>
      </trkpt>
      <trkpt lat="43.456" lon="6.37206">
        <ele>169.81</ele>
        <time>2015-10-01T13:15:19Z</time>
      </trkpt>
      <trkpt lat="43.45601" lon="6.37205">
        <ele>169.81</ele>
        <time>2015-10-01T13:15:36Z</time>
      </trkpt>
      <trkpt lat="43.45601" lon="6.37203">
        <ele>169.81</ele>
        <time>2015-10-01T13:16:05Z</time>
      </trkpt>
      <trkpt lat="43.45601" lon="6.37204">
        <ele>169.81</ele>
        <time>2015-10-01T13:16:29Z</time>
      </trkpt>
      <trkpt lat="43.45602" lon="6.37206">
        <ele>170.29</ele>
        <time>2015-10-01T13:16:53Z</time>
      </trkpt>
      <trkpt lat="43.45601" lon="6.37207">
        <ele>170.29</ele>
        <time>2015-10-01T13:17:09Z</time>
      </trkpt>
      <trkpt lat="43.45601" lon="6.37208">
        <ele>170.29</ele>
        <time>2015-10-01T13:17:38Z</time>
      </trkpt>
      <trkpt lat="43.456" lon="6.3721">
        <ele>170.29</ele>
        <time>2015-10-01T13:18:12Z</time>
      </trkpt>
      <trkpt lat="43.45601" lon="6.37213">
        <ele>169.81</ele>
        <time>2015-10-01T13:18:32Z</time>
      </trkpt>
      <trkpt lat="43.45602" lon="6.37211">
        <ele>169.81</ele>
        <time>2015-10-01T13:18:56Z</time>
      </trkpt>
      <trkpt lat="43.45602" lon="6.37213">
        <ele>170.29</ele>
        <time>2015-10-01T13:19:16Z</time>
      </trkpt>
      <trkpt lat="43.45601" lon="6.37212">
        <ele>170.29</ele>
        <time>2015-10-01T13:19:47Z</time>
      </trkpt>
      <trkpt lat="43.45601" lon="6.37213">
        <ele>169.81</ele>
        <time>2015-10-01T13:20:06Z</time>
      </trkpt>
      <trkpt lat="43.45602" lon="6.37213">
        <ele>169.81</ele>
        <time>2015-10-01T13:20:35Z</time>
      </trkpt>
      <trkpt lat="43.45602" lon="6.37212">
        <ele>169.81</ele>
        <time>2015-10-01T13:21:07Z</time>
      </trkpt>
      <trkpt lat="43.45602" lon="6.37213">
        <ele>169.81</ele>
        <time>2015-10-01T13:21:39Z</time>
      </trkpt>
      <trkpt lat="43.45604" lon="6.37204">
        <ele>169.81</ele>
        <time>2015-10-01T13:21:58Z</time>
      </trkpt>
      <trkpt lat="43.45606" lon="6.37194">
        <ele>169.33</ele>
        <time>2015-10-01T13:22:12Z</time>
      </trkpt>
      <trkpt lat="43.45604" lon="6.37187">
        <ele>168.85</ele>
        <time>2015-10-01T13:22:27Z</time>
      </trkpt>
      <trkpt lat="43.45603" lon="6.37185">
        <ele>168.85</ele>
        <time>2015-10-01T13:22:47Z</time>
      </trkpt>
      <trkpt lat="43.45601" lon="6.37182">
        <ele>168.37</ele>
        <time>2015-10-01T13:23:05Z</time>
      </trkpt>
      <trkpt lat="43.45598" lon="6.37179">
        <ele>168.37</ele>
        <time>2015-10-01T13:23:25Z</time>
      </trkpt>
      <trkpt lat="43.45594" lon="6.37178">
        <ele>168.37</ele>
        <time>2015-10-01T13:23:41Z</time>
      </trkpt>
      <trkpt lat="43.45588" lon="6.37178">
        <ele>168.85</ele>
        <time>2015-10-01T13:23:54Z</time>
      </trkpt>
      <trkpt lat="43.45576" lon="6.37179">
        <ele>169.33</ele>
        <time>2015-10-01T13:24:10Z</time>
      </trkpt>
      <trkpt lat="43.45568" lon="6.37185">
        <ele>169.33</ele>
        <time>2015-10-01T13:24:24Z</time>
      </trkpt>
      <trkpt lat="43.45556" lon="6.37191">
        <ele>169.33</ele>
        <time>2015-10-01T13:24:41Z</time>
      </trkpt>
      <trkpt lat="43.4555" lon="6.37197">
        <ele>169.33</ele>
        <time>2015-10-01T13:24:55Z</time>
      </trkpt>
      <trkpt lat="43.4554" lon="6.3721">
        <ele>169.33</ele>
        <time>2015-10-01T13:25:09Z</time>
      </trkpt>
      <trkpt lat="43.45536" lon="6.3722">
        <ele>169.33</ele>
        <time>2015-10-01T13:25:25Z</time>
      </trkpt>
      <trkpt lat="43.45534" lon="6.37234">
        <ele>169.81</ele>
        <time>2015-10-01T13:25:39Z</time>
      </trkpt>
      <trkpt lat="43.45529" lon="6.37243">
        <ele>170.29</ele>
        <time>2015-10-01T13:25:52Z</time>
      </trkpt>
      <trkpt lat="43.45525" lon="6.37244">
        <ele>170.29</ele>
        <time>2015-10-01T13:26:00Z</time>
      </trkpt>
      <trkpt lat="43.45517" lon="6.37251">
        <ele>169.81</ele>
        <time>2015-10-01T13:26:15Z</time>
      </trkpt>
      <trkpt lat="43.45508" lon="6.37254">
        <ele>170.29</ele>
        <time>2015-10-01T13:26:30Z</time>
      </trkpt>
      <trkpt lat="43.45499" lon="6.37252">
        <ele>170.77</ele>
        <time>2015-10-01T13:26:48Z</time>
      </trkpt>
      <trkpt lat="43.45491" lon="6.37255">
        <ele>171.25</ele>
        <time>2015-10-01T13:27:03Z</time>
      </trkpt>
      <trkpt lat="43.45485" lon="6.37251">
        <ele>171.73</ele>
        <time>2015-10-01T13:27:17Z</time>
      </trkpt>
      <trkpt lat="43.45479" lon="6.37247">
        <ele>173.17</ele>
        <time>2015-10-01T13:27:30Z</time>
      </trkpt>
      <trkpt lat="43.45478" lon="6.37248">
        <ele>173.17</ele>
        <time>2015-10-01T13:27:43Z</time>
      </trkpt>
      <trkpt lat="43.45478" lon="6.37249">
        <ele>173.17</ele>
        <time>2015-10-01T13:28:11Z</time>
      </trkpt>
      <trkpt lat="43.45477" lon="6.37249">
        <ele>173.17</ele>
        <time>2015-10-01T13:28:33Z</time>
      </trkpt>
      <trkpt lat="43.45477" lon="6.37247">
        <ele>172.69</ele>
        <time>2015-10-01T13:28:58Z</time>
      </trkpt>
      <trkpt lat="43.45478" lon="6.37234">
        <ele>171.73</ele>
        <time>2015-10-01T13:29:11Z</time>
      </trkpt>
      <trkpt lat="43.45479" lon="6.37219">
        <ele>171.25</ele>
        <time>2015-10-01T13:29:24Z</time>
      </trkpt>
      <trkpt lat="43.45479" lon="6.37204">
        <ele>170.29</ele>
        <time>2015-10-01T13:29:37Z</time>
      </trkpt>
      <trkpt lat="43.45478" lon="6.37197">
        <ele>170.29</ele>
        <time>2015-10-01T13:29:41Z</time>
      </trkpt>
      <trkpt lat="43.45473" lon="6.37176">
        <ele>170.29</ele>
        <time>2015-10-01T13:29:56Z</time>
      </trkpt>
      <trkpt lat="43.45476" lon="6.37159">
        <ele>167.89</ele>
        <time>2015-10-01T13:30:10Z</time>
      </trkpt>
      <trkpt lat="43.45477" lon="6.37153">
        <ele>167.41</ele>
        <time>2015-10-01T13:30:15Z</time>
      </trkpt>
      <trkpt lat="43.45481" lon="6.37137">
        <ele>165.48</ele>
        <time>2015-10-01T13:30:30Z</time>
      </trkpt>
      <trkpt lat="43.45482" lon="6.37124">
        <ele>164.52</ele>
        <time>2015-10-01T13:30:43Z</time>
      </trkpt>
      <trkpt lat="43.45482" lon="6.37113">
        <ele>163.08</ele>
        <time>2015-10-01T13:30:57Z</time>
      </trkpt>
      <trkpt lat="43.45483" lon="6.37098">
        <ele>161.64</ele>
        <time>2015-10-01T13:31:11Z</time>
      </trkpt>
      <trkpt lat="43.45483" lon="6.37079">
        <ele>159.72</ele>
        <time>2015-10-01T13:31:27Z</time>
      </trkpt>
      <trkpt lat="43.45479" lon="6.37065">
        <ele>158.27</ele>
        <time>2015-10-01T13:31:40Z</time>
      </trkpt>
      <trkpt lat="43.45476" lon="6.3705">
        <ele>157.31</ele>
        <time>2015-10-01T13:31:54Z</time>
      </trkpt>
      <trkpt lat="43.45474" lon="6.37037">
        <ele>155.87</ele>
        <time>2015-10-01T13:32:06Z</time>
      </trkpt>
      <trkpt lat="43.45475" lon="6.37028">
        <ele>154.43</ele>
        <time>2015-10-01T13:32:18Z</time>
      </trkpt>
      <trkpt lat="43.45473" lon="6.37011">
        <ele>152.51</ele>
        <time>2015-10-01T13:32:34Z</time>
      </trkpt>
      <trkpt lat="43.45472" lon="6.3701">
        <ele>152.03</ele>
        <time>2015-10-01T13:32:35Z</time>
      </trkpt>
      <trkpt lat="43.45469" lon="6.36996">
        <ele>150.1</ele>
        <time>2015-10-01T13:32:48Z</time>
      </trkpt>
      <trkpt lat="43.45469" lon="6.3698">
        <ele>147.7</ele>
        <time>2015-10-01T13:33:02Z</time>
      </trkpt>
      <trkpt lat="43.45468" lon="6.36966">
        <ele>145.78</ele>
        <time>2015-10-01T13:33:16Z</time>
      </trkpt>
      <trkpt lat="43.45468" lon="6.36961">
        <ele>145.3</ele>
        <time>2015-10-01T13:33:26Z</time>
      </trkpt>
      <trkpt lat="43.45471" lon="6.36949">
        <ele>144.34</ele>
        <time>2015-10-01T13:33:35Z</time>
      </trkpt>
      <trkpt lat="43.45474" lon="6.36935">
        <ele>142.89</ele>
        <time>2015-10-01T13:33:45Z</time>
      </trkpt>
      <trkpt lat="43.45476" lon="6.36917">
        <ele>141.45</ele>
        <time>2015-10-01T13:33:59Z</time>
      </trkpt>
      <trkpt lat="43.45477" lon="6.36909">
        <ele>140.97</ele>
        <time>2015-10-01T13:34:05Z</time>
      </trkpt>
      <trkpt lat="43.45476" lon="6.36894">
        <ele>139.53</ele>
        <time>2015-10-01T13:34:18Z</time>
      </trkpt>
      <trkpt lat="43.45475" lon="6.36875">
        <ele>139.05</ele>
        <time>2015-10-01T13:34:33Z</time>
      </trkpt>
      <trkpt lat="43.45471" lon="6.36855">
        <ele>139.53</ele>
        <time>2015-10-01T13:34:50Z</time>
      </trkpt>
      <trkpt lat="43.4547" lon="6.36853">
        <ele>139.53</ele>
        <time>2015-10-01T13:35:06Z</time>
      </trkpt>
      <trkpt lat="43.45469" lon="6.36852">
        <ele>139.53</ele>
        <time>2015-10-01T13:35:23Z</time>
      </trkpt>
      <trkpt lat="43.45467" lon="6.36851">
        <ele>139.53</ele>
        <time>2015-10-01T13:35:41Z</time>
      </trkpt>
      <trkpt lat="43.45458" lon="6.36847">
        <ele>139.53</ele>
        <time>2015-10-01T13:35:56Z</time>
      </trkpt>
      <trkpt lat="43.45444" lon="6.3684">
        <ele>139.53</ele>
        <time>2015-10-01T13:36:09Z</time>
      </trkpt>
      <trkpt lat="43.4543" lon="6.3684">
        <ele>139.53</ele>
        <time>2015-10-01T13:36:25Z</time>
      </trkpt>
      <trkpt lat="43.45421" lon="6.36838">
        <ele>140.49</ele>
        <time>2015-10-01T13:36:40Z</time>
      </trkpt>
      <trkpt lat="43.4542" lon="6.36838">
        <ele>140.49</ele>
        <time>2015-10-01T13:36:41Z</time>
      </trkpt>
      <trkpt lat="43.45404" lon="6.36837">
        <ele>140.97</ele>
        <time>2015-10-01T13:36:56Z</time>
      </trkpt>
      <trkpt lat="43.45393" lon="6.3684">
        <ele>141.45</ele>
        <time>2015-10-01T13:37:09Z</time>
      </trkpt>
      <trkpt lat="43.45382" lon="6.36844">
        <ele>141.45</ele>
        <time>2015-10-01T13:37:25Z</time>
      </trkpt>
      <trkpt lat="43.4537" lon="6.36847">
        <ele>142.41</ele>
        <time>2015-10-01T13:37:40Z</time>
      </trkpt>
      <trkpt lat="43.45361" lon="6.36849">
        <ele>142.89</ele>
        <time>2015-10-01T13:37:54Z</time>
      </trkpt>
      <trkpt lat="43.45355" lon="6.36847">
        <ele>143.85</ele>
        <time>2015-10-01T13:38:08Z</time>
      </trkpt>
      <trkpt lat="43.45352" lon="6.36848">
        <ele>144.34</ele>
        <time>2015-10-01T13:38:25Z</time>
      </trkpt>
      <trkpt lat="43.45354" lon="6.36855">
        <ele>143.37</ele>
        <time>2015-10-01T13:38:38Z</time>
      </trkpt>
      <trkpt lat="43.45358" lon="6.36859">
        <ele>142.89</ele>
        <time>2015-10-01T13:38:52Z</time>
      </trkpt>
      <trkpt lat="43.45352" lon="6.3685">
        <ele>143.85</ele>
        <time>2015-10-01T13:39:06Z</time>
      </trkpt>
      <trkpt lat="43.45351" lon="6.36849">
        <ele>144.34</ele>
        <time>2015-10-01T13:39:22Z</time>
      </trkpt>
      <trkpt lat="43.45351" lon="6.36848">
        <ele>144.34</ele>
        <time>2015-10-01T13:39:45Z</time>
      </trkpt>
      <trkpt lat="43.45342" lon="6.36847">
        <ele>145.78</ele>
        <time>2015-10-01T13:40:05Z</time>
      </trkpt>
      <trkpt lat="43.4533" lon="6.36848">
        <ele>146.74</ele>
        <time>2015-10-01T13:40:17Z</time>
      </trkpt>
      <trkpt lat="43.45327" lon="6.36849">
        <ele>147.22</ele>
        <time>2015-10-01T13:40:20Z</time>
      </trkpt>
      <trkpt lat="43.45316" lon="6.36851">
        <ele>149.14</ele>
        <time>2015-10-01T13:40:34Z</time>
      </trkpt>
      <trkpt lat="43.45306" lon="6.36856">
        <ele>151.06</ele>
        <time>2015-10-01T13:40:47Z</time>
      </trkpt>
      <trkpt lat="43.45301" lon="6.36859">
        <ele>152.03</ele>
        <time>2015-10-01T13:40:53Z</time>
      </trkpt>
      <trkpt lat="43.45293" lon="6.36863">
        <ele>153.95</ele>
        <time>2015-10-01T13:41:04Z</time>
      </trkpt>
      <trkpt lat="43.45282" lon="6.36865">
        <ele>156.35</ele>
        <time>2015-10-01T13:41:17Z</time>
      </trkpt>
      <trkpt lat="43.45276" lon="6.36868">
        <ele>158.27</ele>
        <time>2015-10-01T13:41:29Z</time>
      </trkpt>
      <trkpt lat="43.45267" lon="6.36868">
        <ele>160.68</ele>
        <time>2015-10-01T13:41:43Z</time>
      </trkpt>
      <trkpt lat="43.45254" lon="6.36868">
        <ele>163.56</ele>
        <time>2015-10-01T13:41:58Z</time>
      </trkpt>
      <trkpt lat="43.45244" lon="6.36867">
        <ele>165.96</ele>
        <time>2015-10-01T13:42:11Z</time>
      </trkpt>
      <trkpt lat="43.45233" lon="6.36865">
        <ele>168.37</ele>
        <time>2015-10-01T13:42:25Z</time>
      </trkpt>
      <trkpt lat="43.45222" lon="6.36864">
        <ele>171.25</ele>
        <time>2015-10-01T13:42:39Z</time>
      </trkpt>
      <trkpt lat="43.45209" lon="6.3686">
        <ele>173.66</ele>
        <time>2015-10-01T13:42:55Z</time>
      </trkpt>
      <trkpt lat="43.45195" lon="6.36861">
        <ele>175.58</ele>
        <time>2015-10-01T13:43:11Z</time>
      </trkpt>
      <trkpt lat="43.45184" lon="6.36864">
        <ele>177.5</ele>
        <time>2015-10-01T13:43:23Z</time>
      </trkpt>
      <trkpt lat="43.45172" lon="6.36867">
        <ele>178.46</ele>
        <time>2015-10-01T13:43:37Z</time>
      </trkpt>
      <trkpt lat="43.45166" lon="6.36866">
        <ele>178.46</ele>
        <time>2015-10-01T13:43:52Z</time>
      </trkpt>
      <trkpt lat="43.45165" lon="6.36866">
        <ele>178.46</ele>
        <time>2015-10-01T13:44:15Z</time>
      </trkpt>
      <trkpt lat="43.45165" lon="6.36866">
        <ele>178.46</ele>
        <time>2015-10-01T13:44:50Z</time>
      </trkpt>
      <trkpt lat="43.45165" lon="6.36866">
        <ele>178.46</ele>
        <time>2015-10-01T13:45:26Z</time>
      </trkpt>
      <trkpt lat="43.45165" lon="6.36866">
        <ele>178.46</ele>
        <time>2015-10-01T13:46:02Z</time>
      </trkpt>
      <trkpt lat="43.45165" lon="6.36866">
        <ele>178.46</ele>
        <time>2015-10-01T13:46:40Z</time>
      </trkpt>
      <trkpt lat="43.45165" lon="6.36866">
        <ele>178.46</ele>
        <time>2015-10-01T13:47:09Z</time>
      </trkpt>
      <trkpt lat="43.45164" lon="6.36865">
        <ele>178.46</ele>
        <time>2015-10-01T13:47:40Z</time>
      </trkpt>
      <trkpt lat="43.45164" lon="6.36865">
        <ele>178.46</ele>
        <time>2015-10-01T13:48:15Z</time>
      </trkpt>
      <trkpt lat="43.45164" lon="6.36866">
        <ele>178.46</ele>
        <time>2015-10-01T13:48:42Z</time>
      </trkpt>
      <trkpt lat="43.45164" lon="6.36867">
        <ele>178.46</ele>
        <time>2015-10-01T13:48:45Z</time>
      </trkpt>
      <trkpt lat="43.45153" lon="6.36881">
        <ele>177.98</ele>
        <time>2015-10-01T13:48:55Z</time>
      </trkpt>
      <trkpt lat="43.4515" lon="6.36885">
        <ele>177.98</ele>
        <time>2015-10-01T13:48:58Z</time>
      </trkpt>
      <trkpt lat="43.45146" lon="6.3689">
        <ele>177.98</ele>
        <time>2015-10-01T13:49:03Z</time>
      </trkpt>
      <trkpt lat="43.45137" lon="6.36904">
        <ele>177.02</ele>
        <time>2015-10-01T13:49:17Z</time>
      </trkpt>
      <trkpt lat="43.4513" lon="6.36914">
        <ele>176.54</ele>
        <time>2015-10-01T13:49:29Z</time>
      </trkpt>
      <trkpt lat="43.45119" lon="6.36924">
        <ele>176.54</ele>
        <time>2015-10-01T13:49:41Z</time>
      </trkpt>
      <trkpt lat="43.45102" lon="6.36935">
        <ele>176.54</ele>
        <time>2015-10-01T13:49:57Z</time>
      </trkpt>
      <trkpt lat="43.451" lon="6.36936">
        <ele>176.54</ele>
        <time>2015-10-01T13:49:59Z</time>
      </trkpt>
      <trkpt lat="43.45088" lon="6.36947">
        <ele>176.54</ele>
        <time>2015-10-01T13:50:14Z</time>
      </trkpt>
      <trkpt lat="43.45086" lon="6.36949">
        <ele>176.06</ele>
        <time>2015-10-01T13:50:17Z</time>
      </trkpt>
      <trkpt lat="43.45074" lon="6.36963">
        <ele>176.06</ele>
        <time>2015-10-01T13:50:31Z</time>
      </trkpt>
      <trkpt lat="43.45066" lon="6.36973">
        <ele>175.58</ele>
        <time>2015-10-01T13:50:41Z</time>
      </trkpt>
      <trkpt lat="43.45054" lon="6.36986">
        <ele>174.14</ele>
        <time>2015-10-01T13:50:54Z</time>
      </trkpt>
      <trkpt lat="43.45043" lon="6.37004">
        <ele>171.73</ele>
        <time>2015-10-01T13:51:11Z</time>
      </trkpt>
      <trkpt lat="43.45033" lon="6.37016">
        <ele>170.29</ele>
        <time>2015-10-01T13:51:25Z</time>
      </trkpt>
      <trkpt lat="43.45023" lon="6.37028">
        <ele>168.85</ele>
        <time>2015-10-01T13:51:38Z</time>
      </trkpt>
      <trkpt lat="43.45016" lon="6.37033">
        <ele>168.85</ele>
        <time>2015-10-01T13:51:46Z</time>
      </trkpt>
      <trkpt lat="43.45005" lon="6.37037">
        <ele>167.89</ele>
        <time>2015-10-01T13:52:00Z</time>
      </trkpt>
      <trkpt lat="43.44991" lon="6.37034">
        <ele>166.93</ele>
        <time>2015-10-01T13:52:12Z</time>
      </trkpt>
      <trkpt lat="43.44981" lon="6.37025">
        <ele>166.45</ele>
        <time>2015-10-01T13:52:26Z</time>
      </trkpt>
      <trkpt lat="43.44979" lon="6.37024">
        <ele>166.93</ele>
        <time>2015-10-01T13:52:29Z</time>
      </trkpt>
      <trkpt lat="43.44974" lon="6.37015">
        <ele>166.93</ele>
        <time>2015-10-01T13:52:38Z</time>
      </trkpt>
      <trkpt lat="43.44971" lon="6.3701">
        <ele>166.93</ele>
        <time>2015-10-01T13:52:43Z</time>
      </trkpt>
      <trkpt lat="43.4497" lon="6.37007">
        <ele>166.93</ele>
        <time>2015-10-01T13:52:45Z</time>
      </trkpt>
      <trkpt lat="43.44967" lon="6.37004">
        <ele>166.93</ele>
        <time>2015-10-01T13:52:48Z</time>
      </trkpt>
      <trkpt lat="43.44964" lon="6.36998">
        <ele>167.41</ele>
        <time>2015-10-01T13:52:54Z</time>
      </trkpt>
      <trkpt lat="43.44955" lon="6.36985">
        <ele>167.89</ele>
        <time>2015-10-01T13:53:07Z</time>
      </trkpt>
      <trkpt lat="43.4495" lon="6.36978">
        <ele>168.37</ele>
        <time>2015-10-01T13:53:14Z</time>
      </trkpt>
      <trkpt lat="43.44943" lon="6.36965">
        <ele>168.85</ele>
        <time>2015-10-01T13:53:26Z</time>
      </trkpt>
      <trkpt lat="43.44936" lon="6.3695">
        <ele>168.85</ele>
        <time>2015-10-01T13:53:41Z</time>
      </trkpt>
      <trkpt lat="43.44933" lon="6.36936">
        <ele>169.33</ele>
        <time>2015-10-01T13:53:52Z</time>
      </trkpt>
      <trkpt lat="43.44931" lon="6.36929">
        <ele>169.33</ele>
        <time>2015-10-01T13:53:58Z</time>
      </trkpt>
      <trkpt lat="43.44923" lon="6.36912">
        <ele>168.37</ele>
        <time>2015-10-01T13:54:13Z</time>
      </trkpt>
      <trkpt lat="43.44922" lon="6.36912">
        <ele>167.89</ele>
        <time>2015-10-01T13:54:14Z</time>
      </trkpt>
      <trkpt lat="43.44906" lon="6.36906">
        <ele>165.96</ele>
        <time>2015-10-01T13:54:31Z</time>
      </trkpt>
      <trkpt lat="43.44898" lon="6.36903">
        <ele>165.48</ele>
        <time>2015-10-01T13:54:39Z</time>
      </trkpt>
      <trkpt lat="43.44881" lon="6.36895">
        <ele>165.96</ele>
        <time>2015-10-01T13:54:56Z</time>
      </trkpt>
      <trkpt lat="43.44876" lon="6.3689">
        <ele>165.48</ele>
        <time>2015-10-01T13:55:02Z</time>
      </trkpt>
      <trkpt lat="43.44864" lon="6.3688">
        <ele>165.96</ele>
        <time>2015-10-01T13:55:18Z</time>
      </trkpt>
      <trkpt lat="43.44857" lon="6.36874">
        <ele>166.45</ele>
        <time>2015-10-01T13:55:32Z</time>
      </trkpt>
      <trkpt lat="43.44859" lon="6.36868">
        <ele>166.93</ele>
        <time>2015-10-01T13:55:46Z</time>
      </trkpt>
      <trkpt lat="43.4486" lon="6.36868">
        <ele>166.93</ele>
        <time>2015-10-01T13:56:01Z</time>
      </trkpt>
      <trkpt lat="43.4486" lon="6.36865">
        <ele>166.93</ele>
        <time>2015-10-01T13:56:24Z</time>
      </trkpt>
      <trkpt lat="43.44861" lon="6.36861">
        <ele>166.93</ele>
        <time>2015-10-01T13:56:38Z</time>
      </trkpt>
      <trkpt lat="43.4486" lon="6.3686">
        <ele>166.93</ele>
        <time>2015-10-01T13:56:57Z</time>
      </trkpt>
      <trkpt lat="43.4486" lon="6.3686">
        <ele>166.93</ele>
        <time>2015-10-01T13:57:15Z</time>
      </trkpt>
      <trkpt lat="43.4486" lon="6.36861">
        <ele>166.93</ele>
        <time>2015-10-01T13:57:40Z</time>
      </trkpt>
      <trkpt lat="43.4486" lon="6.36861">
        <ele>166.45</ele>
        <time>2015-10-01T13:58:07Z</time>
      </trkpt>
      <trkpt lat="43.44861" lon="6.3686">
        <ele>166.45</ele>
        <time>2015-10-01T13:58:31Z</time>
      </trkpt>
      <trkpt lat="43.44863" lon="6.36855">
        <ele>166.45</ele>
        <time>2015-10-01T13:58:37Z</time>
      </trkpt>
      <trkpt lat="43.4487" lon="6.36836">
        <ele>166.45</ele>
        <time>2015-10-01T13:58:53Z</time>
      </trkpt>
      <trkpt lat="43.44877" lon="6.36821">
        <ele>169.33</ele>
        <time>2015-10-01T13:59:05Z</time>
      </trkpt>
      <trkpt lat="43.44884" lon="6.36804">
        <ele>168.85</ele>
        <time>2015-10-01T13:59:19Z</time>
      </trkpt>
      <trkpt lat="43.44891" lon="6.36787">
        <ele>169.33</ele>
        <time>2015-10-01T13:59:32Z</time>
      </trkpt>
      <trkpt lat="43.44891" lon="6.36775">
        <ele>170.77</ele>
        <time>2015-10-01T13:59:44Z</time>
      </trkpt>
      <trkpt lat="43.44889" lon="6.36774">
        <ele>171.25</ele>
        <time>2015-10-01T13:59:46Z</time>
      </trkpt>
      <trkpt lat="43.44878" lon="6.36763">
        <ele>172.21</ele>
        <time>2015-10-01T14:00:01Z</time>
      </trkpt>
      <trkpt lat="43.4487" lon="6.36756">
        <ele>175.58</ele>
        <time>2015-10-01T14:00:11Z</time>
      </trkpt>
      <trkpt lat="43.4487" lon="6.36756">
        <ele>170.29</ele>
        <time>2015-10-01T14:00:12Z</time>
      </trkpt>
      <trkpt lat="43.44869" lon="6.36755">
        <ele>176.54</ele>
        <time>2015-10-01T14:00:13Z</time>
      </trkpt>
      <trkpt lat="43.44866" lon="6.36753">
        <ele>174.62</ele>
        <time>2015-10-01T14:00:17Z</time>
      </trkpt>
      <trkpt lat="43.44864" lon="6.36751">
        <ele>174.62</ele>
        <time>2015-10-01T14:00:20Z</time>
      </trkpt>
      <trkpt lat="43.44853" lon="6.36742">
        <ele>177.02</ele>
        <time>2015-10-01T14:00:36Z</time>
      </trkpt>
      <trkpt lat="43.44847" lon="6.36735">
        <ele>178.94</ele>
        <time>2015-10-01T14:00:48Z</time>
      </trkpt>
      <trkpt lat="43.44842" lon="6.36729">
        <ele>179.9</ele>
        <time>2015-10-01T14:00:56Z</time>
      </trkpt>
      <trkpt lat="43.44842" lon="6.36726">
        <ele>179.9</ele>
        <time>2015-10-01T14:00:58Z</time>
      </trkpt>
      <trkpt lat="43.44847" lon="6.36712">
        <ele>181.35</ele>
        <time>2015-10-01T14:01:10Z</time>
      </trkpt>
      <trkpt lat="43.4485" lon="6.36707">
        <ele>180.87</ele>
        <time>2015-10-01T14:01:15Z</time>
      </trkpt>
      <trkpt lat="43.44857" lon="6.36693">
        <ele>181.83</ele>
        <time>2015-10-01T14:01:29Z</time>
      </trkpt>
      <trkpt lat="43.44858" lon="6.36688">
        <ele>180.87</ele>
        <time>2015-10-01T14:01:34Z</time>
      </trkpt>
      <trkpt lat="43.4486" lon="6.36682">
        <ele>180.87</ele>
        <time>2015-10-01T14:01:38Z</time>
      </trkpt>
      <trkpt lat="43.44862" lon="6.36676">
        <ele>180.87</ele>
        <time>2015-10-01T14:01:43Z</time>
      </trkpt>
      <trkpt lat="43.44867" lon="6.36661">
        <ele>180.87</ele>
        <time>2015-10-01T14:01:54Z</time>
      </trkpt>
      <trkpt lat="43.44867" lon="6.36656">
        <ele>180.87</ele>
        <time>2015-10-01T14:01:58Z</time>
      </trkpt>
      <trkpt lat="43.44874" lon="6.36641">
        <ele>181.35</ele>
        <time>2015-10-01T14:02:09Z</time>
      </trkpt>
      <trkpt lat="43.44882" lon="6.36623">
        <ele>181.35</ele>
        <time>2015-10-01T14:02:23Z</time>
      </trkpt>
      <trkpt lat="43.44882" lon="6.36612">
        <ele>180.87</ele>
        <time>2015-10-01T14:02:32Z</time>
      </trkpt>
      <trkpt lat="43.44884" lon="6.36605">
        <ele>180.87</ele>
        <time>2015-10-01T14:02:37Z</time>
      </trkpt>
      <trkpt lat="43.44885" lon="6.36602">
        <ele>180.87</ele>
        <time>2015-10-01T14:02:39Z</time>
      </trkpt>
      <trkpt lat="43.44886" lon="6.36584">
        <ele>181.83</ele>
        <time>2015-10-01T14:02:52Z</time>
      </trkpt>
      <trkpt lat="43.4488" lon="6.36565">
        <ele>182.31</ele>
        <time>2015-10-01T14:03:06Z</time>
      </trkpt>
      <trkpt lat="43.44871" lon="6.36549">
        <ele>183.27</ele>
        <time>2015-10-01T14:03:19Z</time>
      </trkpt>
      <trkpt lat="43.44864" lon="6.36532">
        <ele>183.75</ele>
        <time>2015-10-01T14:03:33Z</time>
      </trkpt>
      <trkpt lat="43.44856" lon="6.36517">
        <ele>183.75</ele>
        <time>2015-10-01T14:03:46Z</time>
      </trkpt>
      <trkpt lat="43.44847" lon="6.36505">
        <ele>182.31</ele>
        <time>2015-10-01T14:03:59Z</time>
      </trkpt>
      <trkpt lat="43.44841" lon="6.36504">
        <ele>182.31</ele>
        <time>2015-10-01T14:04:04Z</time>
      </trkpt>
      <trkpt lat="43.44827" lon="6.36504">
        <ele>181.35</ele>
        <time>2015-10-01T14:04:18Z</time>
      </trkpt>
      <trkpt lat="43.44813" lon="6.3651">
        <ele>179.9</ele>
        <time>2015-10-01T14:04:33Z</time>
      </trkpt>
      <trkpt lat="43.44798" lon="6.36514">
        <ele>177.98</ele>
        <time>2015-10-01T14:04:48Z</time>
      </trkpt>
      <trkpt lat="43.44793" lon="6.36517">
        <ele>177.02</ele>
        <time>2015-10-01T14:04:53Z</time>
      </trkpt>
      <trkpt lat="43.44787" lon="6.36519">
        <ele>176.54</ele>
        <time>2015-10-01T14:04:59Z</time>
      </trkpt>
      <trkpt lat="43.44779" lon="6.36521">
        <ele>175.58</ele>
        <time>2015-10-01T14:05:07Z</time>
      </trkpt>
      <trkpt lat="43.44776" lon="6.36521">
        <ele>175.1</ele>
        <time>2015-10-01T14:05:10Z</time>
      </trkpt>
      <trkpt lat="43.44768" lon="6.36522">
        <ele>174.14</ele>
        <time>2015-10-01T14:05:17Z</time>
      </trkpt>
      <trkpt lat="43.44762" lon="6.36523">
        <ele>173.66</ele>
        <time>2015-10-01T14:05:22Z</time>
      </trkpt>
      <trkpt lat="43.44746" lon="6.3652">
        <ele>171.73</ele>
        <time>2015-10-01T14:05:36Z</time>
      </trkpt>
      <trkpt lat="43.44736" lon="6.36518">
        <ele>170.29</ele>
        <time>2015-10-01T14:05:47Z</time>
      </trkpt>
      <trkpt lat="43.44727" lon="6.36514">
        <ele>169.33</ele>
        <time>2015-10-01T14:05:57Z</time>
      </trkpt>
      <trkpt lat="43.44714" lon="6.3651">
        <ele>166.93</ele>
        <time>2015-10-01T14:06:11Z</time>
      </trkpt>
      <trkpt lat="43.44697" lon="6.3651">
        <ele>165</ele>
        <time>2015-10-01T14:06:26Z</time>
      </trkpt>
      <trkpt lat="43.44685" lon="6.36521">
        <ele>164.04</ele>
        <time>2015-10-01T14:06:39Z</time>
      </trkpt>
      <trkpt lat="43.44683" lon="6.36527">
        <ele>163.56</ele>
        <time>2015-10-01T14:06:42Z</time>
      </trkpt>
      <trkpt lat="43.44682" lon="6.36541">
        <ele>162.6</ele>
        <time>2015-10-01T14:06:51Z</time>
      </trkpt>
      <trkpt lat="43.44681" lon="6.36558">
        <ele>160.68</ele>
        <time>2015-10-01T14:07:06Z</time>
      </trkpt>
      <trkpt lat="43.44678" lon="6.36568">
        <ele>159.72</ele>
        <time>2015-10-01T14:07:15Z</time>
      </trkpt>
      <trkpt lat="43.44674" lon="6.36579">
        <ele>158.75</ele>
        <time>2015-10-01T14:07:24Z</time>
      </trkpt>
      <trkpt lat="43.44667" lon="6.36589">
        <ele>156.83</ele>
        <time>2015-10-01T14:07:36Z</time>
      </trkpt>
      <trkpt lat="43.44664" lon="6.36592">
        <ele>156.35</ele>
        <time>2015-10-01T14:07:39Z</time>
      </trkpt>
      <trkpt lat="43.44651" lon="6.36604">
        <ele>154.43</ele>
        <time>2015-10-01T14:07:55Z</time>
      </trkpt>
      <trkpt lat="43.44639" lon="6.36614">
        <ele>152.51</ele>
        <time>2015-10-01T14:08:09Z</time>
      </trkpt>
      <trkpt lat="43.44631" lon="6.36624">
        <ele>151.54</ele>
        <time>2015-10-01T14:08:21Z</time>
      </trkpt>
      <trkpt lat="43.44624" lon="6.36631">
        <ele>150.1</ele>
        <time>2015-10-01T14:08:30Z</time>
      </trkpt>
      <trkpt lat="43.44615" lon="6.36639">
        <ele>148.66</ele>
        <time>2015-10-01T14:08:41Z</time>
      </trkpt>
      <trkpt lat="43.44608" lon="6.36646">
        <ele>147.22</ele>
        <time>2015-10-01T14:08:51Z</time>
      </trkpt>
      <trkpt lat="43.44603" lon="6.36655">
        <ele>145.78</ele>
        <time>2015-10-01T14:09:01Z</time>
      </trkpt>
      <trkpt lat="43.44591" lon="6.36668">
        <ele>143.85</ele>
        <time>2015-10-01T14:09:17Z</time>
      </trkpt>
      <trkpt lat="43.44579" lon="6.36676">
        <ele>143.37</ele>
        <time>2015-10-01T14:09:30Z</time>
      </trkpt>
      <trkpt lat="43.44573" lon="6.36675">
        <ele>141.93</ele>
        <time>2015-10-01T14:09:37Z</time>
      </trkpt>
      <trkpt lat="43.44562" lon="6.36666">
        <ele>140.97</ele>
        <time>2015-10-01T14:09:52Z</time>
      </trkpt>
      <trkpt lat="43.44551" lon="6.36652">
        <ele>140.01</ele>
        <time>2015-10-01T14:10:06Z</time>
      </trkpt>
      <trkpt lat="43.44536" lon="6.36642">
        <ele>139.05</ele>
        <time>2015-10-01T14:10:20Z</time>
      </trkpt>
      <trkpt lat="43.44527" lon="6.3664">
        <ele>138.09</ele>
        <time>2015-10-01T14:10:26Z</time>
      </trkpt>
      <trkpt lat="43.44523" lon="6.36642">
        <ele>138.09</ele>
        <time>2015-10-01T14:10:29Z</time>
      </trkpt>
      <trkpt lat="43.44507" lon="6.36653">
        <ele>135.68</ele>
        <time>2015-10-01T14:10:45Z</time>
      </trkpt>
      <trkpt lat="43.44497" lon="6.36665">
        <ele>134.24</ele>
        <time>2015-10-01T14:10:58Z</time>
      </trkpt>
      <trkpt lat="43.44488" lon="6.36677">
        <ele>132.32</ele>
        <time>2015-10-01T14:11:11Z</time>
      </trkpt>
      <trkpt lat="43.44485" lon="6.36677">
        <ele>131.84</ele>
        <time>2015-10-01T14:11:14Z</time>
      </trkpt>
      <trkpt lat="43.44483" lon="6.36676">
        <ele>131.84</ele>
        <time>2015-10-01T14:11:32Z</time>
      </trkpt>
      <trkpt lat="43.44484" lon="6.36675">
        <ele>131.36</ele>
        <time>2015-10-01T14:11:56Z</time>
      </trkpt>
      <trkpt lat="43.44486" lon="6.36669">
        <ele>130.88</ele>
        <time>2015-10-01T14:12:02Z</time>
      </trkpt>
      <trkpt lat="43.44491" lon="6.36651">
        <ele>129.92</ele>
        <time>2015-10-01T14:12:17Z</time>
      </trkpt>
      <trkpt lat="43.44497" lon="6.36635">
        <ele>129.43</ele>
        <time>2015-10-01T14:12:32Z</time>
      </trkpt>
      <trkpt lat="43.44503" lon="6.36614">
        <ele>128.47</ele>
        <time>2015-10-01T14:12:47Z</time>
      </trkpt>
      <trkpt lat="43.44506" lon="6.36593">
        <ele>126.55</ele>
        <time>2015-10-01T14:13:01Z</time>
      </trkpt>
      <trkpt lat="43.44512" lon="6.36572">
        <ele>124.63</ele>
        <time>2015-10-01T14:13:18Z</time>
      </trkpt>
      <trkpt lat="43.44515" lon="6.36556">
        <ele>123.19</ele>
        <time>2015-10-01T14:13:29Z</time>
      </trkpt>
      <trkpt lat="43.44517" lon="6.36546">
        <ele>121.74</ele>
        <time>2015-10-01T14:13:37Z</time>
      </trkpt>
      <trkpt lat="43.44515" lon="6.36538">
        <ele>120.78</ele>
        <time>2015-10-01T14:13:43Z</time>
      </trkpt>
      <trkpt lat="43.4451" lon="6.36535">
        <ele>120.3</ele>
        <time>2015-10-01T14:13:48Z</time>
      </trkpt>
      <trkpt lat="43.44501" lon="6.36536">
        <ele>119.34</ele>
        <time>2015-10-01T14:13:55Z</time>
      </trkpt>
      <trkpt lat="43.44494" lon="6.36539">
        <ele>117.9</ele>
        <time>2015-10-01T14:14:03Z</time>
      </trkpt>
      <trkpt lat="43.44492" lon="6.36539">
        <ele>117.9</ele>
        <time>2015-10-01T14:14:05Z</time>
      </trkpt>
      <trkpt lat="43.44483" lon="6.36541">
        <ele>116.94</ele>
        <time>2015-10-01T14:14:13Z</time>
      </trkpt>
      <trkpt lat="43.44467" lon="6.36547">
        <ele>115.01</ele>
        <time>2015-10-01T14:14:27Z</time>
      </trkpt>
      <trkpt lat="43.44463" lon="6.36551">
        <ele>114.53</ele>
        <time>2015-10-01T14:14:33Z</time>
      </trkpt>
      <trkpt lat="43.44453" lon="6.36558">
        <ele>113.09</ele>
        <time>2015-10-01T14:14:44Z</time>
      </trkpt>
      <trkpt lat="43.44438" lon="6.36569">
        <ele>110.69</ele>
        <time>2015-10-01T14:15:00Z</time>
      </trkpt>
      <trkpt lat="43.44436" lon="6.36571">
        <ele>110.21</ele>
        <time>2015-10-01T14:15:03Z</time>
      </trkpt>
      <trkpt lat="43.44432" lon="6.36575">
        <ele>109.25</ele>
        <time>2015-10-01T14:15:08Z</time>
      </trkpt>
      <trkpt lat="43.44421" lon="6.36589">
        <ele>106.36</ele>
        <time>2015-10-01T14:15:24Z</time>
      </trkpt>
      <trkpt lat="43.44415" lon="6.36598">
        <ele>104.92</ele>
        <time>2015-10-01T14:15:34Z</time>
      </trkpt>
      <trkpt lat="43.44409" lon="6.3662">
        <ele>102.04</ele>
        <time>2015-10-01T14:15:49Z</time>
      </trkpt>
      <trkpt lat="43.44403" lon="6.36634">
        <ele>100.11</ele>
        <time>2015-10-01T14:16:01Z</time>
      </trkpt>
      <trkpt lat="43.44397" lon="6.36645">
        <ele>98.67</ele>
        <time>2015-10-01T14:16:10Z</time>
      </trkpt>
      <trkpt lat="43.44391" lon="6.36665">
        <ele>96.75</ele>
        <time>2015-10-01T14:16:24Z</time>
      </trkpt>
      <trkpt lat="43.4439" lon="6.36667">
        <ele>96.27</ele>
        <time>2015-10-01T14:16:27Z</time>
      </trkpt>
      <trkpt lat="43.44386" lon="6.36677">
        <ele>95.31</ele>
        <time>2015-10-01T14:16:35Z</time>
      </trkpt>
      <trkpt lat="43.44379" lon="6.36695">
        <ele>93.39</ele>
        <time>2015-10-01T14:16:48Z</time>
      </trkpt>
      <trkpt lat="43.44375" lon="6.36709">
        <ele>91.94</ele>
        <time>2015-10-01T14:16:59Z</time>
      </trkpt>
      <trkpt lat="43.44372" lon="6.3673">
        <ele>90.02</ele>
        <time>2015-10-01T14:17:13Z</time>
      </trkpt>
      <trkpt lat="43.4437" lon="6.36748">
        <ele>88.58</ele>
        <time>2015-10-01T14:17:26Z</time>
      </trkpt>
      <trkpt lat="43.4437" lon="6.36749">
        <ele>88.58</ele>
        <time>2015-10-01T14:17:27Z</time>
      </trkpt>
      <trkpt lat="43.4437" lon="6.36768">
        <ele>88.1</ele>
        <time>2015-10-01T14:17:41Z</time>
      </trkpt>
      <trkpt lat="43.44369" lon="6.36768">
        <ele>88.1</ele>
        <time>2015-10-01T14:18:07Z</time>
      </trkpt>
      <trkpt lat="43.44369" lon="6.36768">
        <ele>87.62</ele>
        <time>2015-10-01T14:18:21Z</time>
      </trkpt>
      <trkpt lat="43.44368" lon="6.36768">
        <ele>87.62</ele>
        <time>2015-10-01T14:18:41Z</time>
      </trkpt>
      <trkpt lat="43.44368" lon="6.36771">
        <ele>87.62</ele>
        <time>2015-10-01T14:18:50Z</time>
      </trkpt>
      <trkpt lat="43.44368" lon="6.36777">
        <ele>87.62</ele>
        <time>2015-10-01T14:19:02Z</time>
      </trkpt>
      <trkpt lat="43.44371" lon="6.36776">
        <ele>87.62</ele>
        <time>2015-10-01T14:19:19Z</time>
      </trkpt>
      <trkpt lat="43.44371" lon="6.36776">
        <ele>88.1</ele>
        <time>2015-10-01T14:19:35Z</time>
      </trkpt>
      <trkpt lat="43.4437" lon="6.36775">
        <ele>88.1</ele>
        <time>2015-10-01T14:19:48Z</time>
      </trkpt>
      <trkpt lat="43.44372" lon="6.36776">
        <ele>88.1</ele>
        <time>2015-10-01T14:20:17Z</time>
      </trkpt>
      <trkpt lat="43.44371" lon="6.36776">
        <ele>87.62</ele>
        <time>2015-10-01T14:20:45Z</time>
      </trkpt>
      <trkpt lat="43.4437" lon="6.36775">
        <ele>87.62</ele>
        <time>2015-10-01T14:20:56Z</time>
      </trkpt>
      <trkpt lat="43.44369" lon="6.36776">
        <ele>87.62</ele>
        <time>2015-10-01T14:21:23Z</time>
      </trkpt>
      <trkpt lat="43.44369" lon="6.36775">
        <ele>87.14</ele>
        <time>2015-10-01T14:21:40Z</time>
      </trkpt>
      <trkpt lat="43.44369" lon="6.36774">
        <ele>87.14</ele>
        <time>2015-10-01T14:22:03Z</time>
      </trkpt>
      <trkpt lat="43.4437" lon="6.36774">
        <ele>87.14</ele>
        <time>2015-10-01T14:22:25Z</time>
      </trkpt>
      <trkpt lat="43.44369" lon="6.36775">
        <ele>87.14</ele>
        <time>2015-10-01T14:22:39Z</time>
      </trkpt>
      <trkpt lat="43.44369" lon="6.36776">
        <ele>87.14</ele>
        <time>2015-10-01T14:23:02Z</time>
      </trkpt>
      <trkpt lat="43.4437" lon="6.36776">
        <ele>87.14</ele>
        <time>2015-10-01T14:23:30Z</time>
      </trkpt>
      <trkpt lat="43.4437" lon="6.36776">
        <ele>87.14</ele>
        <time>2015-10-01T14:24:00Z</time>
      </trkpt>
      <trkpt lat="43.44372" lon="6.36776">
        <ele>87.14</ele>
        <time>2015-10-01T14:24:27Z</time>
      </trkpt>
      <trkpt lat="43.44372" lon="6.36775">
        <ele>86.66</ele>
        <time>2015-10-01T14:24:59Z</time>
      </trkpt>
      <trkpt lat="43.44372" lon="6.36776">
        <ele>86.66</ele>
        <time>2015-10-01T14:25:29Z</time>
      </trkpt>
      <trkpt lat="43.44369" lon="6.36771">
        <ele>86.18</ele>
        <time>2015-10-01T14:25:37Z</time>
      </trkpt>
      <trkpt lat="43.44361" lon="6.36765">
        <ele>84.25</ele>
        <time>2015-10-01T14:25:50Z</time>
      </trkpt>
      <trkpt lat="43.44357" lon="6.36772">
        <ele>83.77</ele>
        <time>2015-10-01T14:26:07Z</time>
      </trkpt>
      <trkpt lat="43.44354" lon="6.36775">
        <ele>83.77</ele>
        <time>2015-10-01T14:26:19Z</time>
      </trkpt>
      <trkpt lat="43.44354" lon="6.36777">
        <ele>83.77</ele>
        <time>2015-10-01T14:26:21Z</time>
      </trkpt>
      <trkpt lat="43.44351" lon="6.36783">
        <ele>83.29</ele>
        <time>2015-10-01T14:26:28Z</time>
      </trkpt>
      <trkpt lat="43.44349" lon="6.36786">
        <ele>83.29</ele>
        <time>2015-10-01T14:26:31Z</time>
      </trkpt>
      <trkpt lat="43.44341" lon="6.36802">
        <ele>82.81</ele>
        <time>2015-10-01T14:26:44Z</time>
      </trkpt>
      <trkpt lat="43.44332" lon="6.36819">
        <ele>82.81</ele>
        <time>2015-10-01T14:26:59Z</time>
      </trkpt>
      <trkpt lat="43.44325" lon="6.36833">
        <ele>82.33</ele>
        <time>2015-10-01T14:27:12Z</time>
      </trkpt>
      <trkpt lat="43.44316" lon="6.36849">
        <ele>82.33</ele>
        <time>2015-10-01T14:27:25Z</time>
      </trkpt>
      <trkpt lat="43.44314" lon="6.36855">
        <ele>82.33</ele>
        <time>2015-10-01T14:27:30Z</time>
      </trkpt>
      <trkpt lat="43.44312" lon="6.36858">
        <ele>81.85</ele>
        <time>2015-10-01T14:27:33Z</time>
      </trkpt>
      <trkpt lat="43.44306" lon="6.36875">
        <ele>81.85</ele>
        <time>2015-10-01T14:27:47Z</time>
      </trkpt>
      <trkpt lat="43.44298" lon="6.36888">
        <ele>81.85</ele>
        <time>2015-10-01T14:27:59Z</time>
      </trkpt>
      <trkpt lat="43.44289" lon="6.36905">
        <ele>81.85</ele>
        <time>2015-10-01T14:28:14Z</time>
      </trkpt>
      <trkpt lat="43.44281" lon="6.3692">
        <ele>81.37</ele>
        <time>2015-10-01T14:28:27Z</time>
      </trkpt>
      <trkpt lat="43.44278" lon="6.36936">
        <ele>81.37</ele>
        <time>2015-10-01T14:28:39Z</time>
      </trkpt>
      <trkpt lat="43.44278" lon="6.36937">
        <ele>81.37</ele>
        <time>2015-10-01T14:28:40Z</time>
      </trkpt>
      <trkpt lat="43.44278" lon="6.36942">
        <ele>81.37</ele>
        <time>2015-10-01T14:28:44Z</time>
      </trkpt>
      <trkpt lat="43.44287" lon="6.36958">
        <ele>81.85</ele>
        <time>2015-10-01T14:28:58Z</time>
      </trkpt>
      <trkpt lat="43.44289" lon="6.36963">
        <ele>81.37</ele>
        <time>2015-10-01T14:29:05Z</time>
      </trkpt>
      <trkpt lat="43.44291" lon="6.36966">
        <ele>81.37</ele>
        <time>2015-10-01T14:29:07Z</time>
      </trkpt>
      <trkpt lat="43.44293" lon="6.36971">
        <ele>81.37</ele>
        <time>2015-10-01T14:29:11Z</time>
      </trkpt>
      <trkpt lat="43.44299" lon="6.3699">
        <ele>81.37</ele>
        <time>2015-10-01T14:29:25Z</time>
      </trkpt>
      <trkpt lat="43.44301" lon="6.36998">
        <ele>81.37</ele>
        <time>2015-10-01T14:29:31Z</time>
      </trkpt>
      <trkpt lat="43.44306" lon="6.37017">
        <ele>80.89</ele>
        <time>2015-10-01T14:29:46Z</time>
      </trkpt>
      <trkpt lat="43.44309" lon="6.37024">
        <ele>80.89</ele>
        <time>2015-10-01T14:30:00Z</time>
      </trkpt>
      <trkpt lat="43.44311" lon="6.37025">
        <ele>80.89</ele>
        <time>2015-10-01T14:30:10Z</time>
      </trkpt>
      <trkpt lat="43.44312" lon="6.37034">
        <ele>80.89</ele>
        <time>2015-10-01T14:30:19Z</time>
      </trkpt>
      <trkpt lat="43.44314" lon="6.3704">
        <ele>80.89</ele>
        <time>2015-10-01T14:30:28Z</time>
      </trkpt>
      <trkpt lat="43.44318" lon="6.37053">
        <ele>80.41</ele>
        <time>2015-10-01T14:30:41Z</time>
      </trkpt>
      <trkpt lat="43.44318" lon="6.37053">
        <ele>80.89</ele>
        <time>2015-10-01T14:30:45Z</time>
      </trkpt>
      <trkpt lat="43.44321" lon="6.37065">
        <ele>80.41</ele>
        <time>2015-10-01T14:30:58Z</time>
      </trkpt>
      <trkpt lat="43.44321" lon="6.37074">
        <ele>80.41</ele>
        <time>2015-10-01T14:31:06Z</time>
      </trkpt>
      <trkpt lat="43.44321" lon="6.37082">
        <ele>80.41</ele>
        <time>2015-10-01T14:31:19Z</time>
      </trkpt>
      <trkpt lat="43.44322" lon="6.37084">
        <ele>80.41</ele>
        <time>2015-10-01T14:31:27Z</time>
      </trkpt>
      <trkpt lat="43.44323" lon="6.37092">
        <ele>81.37</ele>
        <time>2015-10-01T14:31:32Z</time>
      </trkpt>
      <trkpt lat="43.44326" lon="6.37108">
        <ele>80.89</ele>
        <time>2015-10-01T14:31:43Z</time>
      </trkpt>
      <trkpt lat="43.44326" lon="6.37112">
        <ele>80.89</ele>
        <time>2015-10-01T14:31:46Z</time>
      </trkpt>
      <trkpt lat="43.44326" lon="6.37125">
        <ele>80.89</ele>
        <time>2015-10-01T14:31:57Z</time>
      </trkpt>
      <trkpt lat="43.44328" lon="6.37144">
        <ele>80.89</ele>
        <time>2015-10-01T14:32:10Z</time>
      </trkpt>
      <trkpt lat="43.44329" lon="6.3715">
        <ele>80.89</ele>
        <time>2015-10-01T14:32:14Z</time>
      </trkpt>
      <trkpt lat="43.44329" lon="6.37169">
        <ele>80.89</ele>
        <time>2015-10-01T14:32:27Z</time>
      </trkpt>
      <trkpt lat="43.44329" lon="6.37174">
        <ele>80.89</ele>
        <time>2015-10-01T14:32:31Z</time>
      </trkpt>
      <trkpt lat="43.44329" lon="6.37181">
        <ele>80.89</ele>
        <time>2015-10-01T14:32:40Z</time>
      </trkpt>
      <trkpt lat="43.44326" lon="6.37191">
        <ele>80.89</ele>
        <time>2015-10-01T14:32:52Z</time>
      </trkpt>
      <trkpt lat="43.44324" lon="6.37192">
        <ele>80.89</ele>
        <time>2015-10-01T14:32:57Z</time>
      </trkpt>
      <trkpt lat="43.44322" lon="6.37195">
        <ele>81.37</ele>
        <time>2015-10-01T14:33:05Z</time>
      </trkpt>
      <trkpt lat="43.44319" lon="6.37202">
        <ele>81.37</ele>
        <time>2015-10-01T14:33:17Z</time>
      </trkpt>
      <trkpt lat="43.44318" lon="6.37202">
        <ele>81.37</ele>
        <time>2015-10-01T14:33:26Z</time>
      </trkpt>
      <trkpt lat="43.44307" lon="6.37212">
        <ele>81.37</ele>
        <time>2015-10-01T14:33:40Z</time>
      </trkpt>
      <trkpt lat="43.443" lon="6.37216">
        <ele>81.37</ele>
        <time>2015-10-01T14:33:45Z</time>
      </trkpt>
      <trkpt lat="43.44296" lon="6.37215">
        <ele>81.37</ele>
        <time>2015-10-01T14:33:53Z</time>
      </trkpt>
      <trkpt lat="43.4428" lon="6.37228">
        <ele>80.89</ele>
        <time>2015-10-01T14:34:06Z</time>
      </trkpt>
      <trkpt lat="43.44278" lon="6.3723">
        <ele>80.89</ele>
        <time>2015-10-01T14:34:10Z</time>
      </trkpt>
      <trkpt lat="43.44267" lon="6.37233">
        <ele>80.41</ele>
        <time>2015-10-01T14:34:21Z</time>
      </trkpt>
      <trkpt lat="43.4426" lon="6.37234">
        <ele>80.41</ele>
        <time>2015-10-01T14:34:29Z</time>
      </trkpt>
      <trkpt lat="43.4425" lon="6.37234">
        <ele>79.93</ele>
        <time>2015-10-01T14:34:38Z</time>
      </trkpt>
      <trkpt lat="43.44234" lon="6.37234">
        <ele>79.45</ele>
        <time>2015-10-01T14:34:54Z</time>
      </trkpt>
      <trkpt lat="43.4422" lon="6.37229">
        <ele>79.45</ele>
        <time>2015-10-01T14:35:11Z</time>
      </trkpt>
      <trkpt lat="43.442" lon="6.37226">
        <ele>79.93</ele>
        <time>2015-10-01T14:35:31Z</time>
      </trkpt>
      <trkpt lat="43.44184" lon="6.37227">
        <ele>79.93</ele>
        <time>2015-10-01T14:35:46Z</time>
      </trkpt>
      <trkpt lat="43.44166" lon="6.3723">
        <ele>80.41</ele>
        <time>2015-10-01T14:36:05Z</time>
      </trkpt>
      <trkpt lat="43.44151" lon="6.37233">
        <ele>80.41</ele>
        <time>2015-10-01T14:36:20Z</time>
      </trkpt>
      <trkpt lat="43.44139" lon="6.37237">
        <ele>80.41</ele>
        <time>2015-10-01T14:36:33Z</time>
      </trkpt>
      <trkpt lat="43.44128" lon="6.37242">
        <ele>80.41</ele>
        <time>2015-10-01T14:36:46Z</time>
      </trkpt>
      <trkpt lat="43.44114" lon="6.37252">
        <ele>80.41</ele>
        <time>2015-10-01T14:37:01Z</time>
      </trkpt>
      <trkpt lat="43.44101" lon="6.37257">
        <ele>80.89</ele>
        <time>2015-10-01T14:37:15Z</time>
      </trkpt>
      <trkpt lat="43.44095" lon="6.37259">
        <ele>80.41</ele>
        <time>2015-10-01T14:37:22Z</time>
      </trkpt>
      <trkpt lat="43.44085" lon="6.37262">
        <ele>80.41</ele>
        <time>2015-10-01T14:37:28Z</time>
      </trkpt>
      <trkpt lat="43.44076" lon="6.37262">
        <ele>80.41</ele>
        <time>2015-10-01T14:37:35Z</time>
      </trkpt>
      <trkpt lat="43.44058" lon="6.37261">
        <ele>80.89</ele>
        <time>2015-10-01T14:37:53Z</time>
      </trkpt>
      <trkpt lat="43.4404" lon="6.37254">
        <ele>80.89</ele>
        <time>2015-10-01T14:38:10Z</time>
      </trkpt>
      <trkpt lat="43.44024" lon="6.37243">
        <ele>80.41</ele>
        <time>2015-10-01T14:38:25Z</time>
      </trkpt>
      <trkpt lat="43.44014" lon="6.37242">
        <ele>80.41</ele>
        <time>2015-10-01T14:38:34Z</time>
      </trkpt>
      <trkpt lat="43.44008" lon="6.37241">
        <ele>80.41</ele>
        <time>2015-10-01T14:38:39Z</time>
      </trkpt>
      <trkpt lat="43.44003" lon="6.37243">
        <ele>80.41</ele>
        <time>2015-10-01T14:38:43Z</time>
      </trkpt>
      <trkpt lat="43.43999" lon="6.37243">
        <ele>80.41</ele>
        <time>2015-10-01T14:38:48Z</time>
      </trkpt>
      <trkpt lat="43.43987" lon="6.37243">
        <ele>80.41</ele>
        <time>2015-10-01T14:39:03Z</time>
      </trkpt>
      <trkpt lat="43.43971" lon="6.37246">
        <ele>80.41</ele>
        <time>2015-10-01T14:39:19Z</time>
      </trkpt>
      <trkpt lat="43.43953" lon="6.37256">
        <ele>80.41</ele>
        <time>2015-10-01T14:39:37Z</time>
      </trkpt>
      <trkpt lat="43.43941" lon="6.3727">
        <ele>79.93</ele>
        <time>2015-10-01T14:39:50Z</time>
      </trkpt>
      <trkpt lat="43.43925" lon="6.3729">
        <ele>79.93</ele>
        <time>2015-10-01T14:40:11Z</time>
      </trkpt>
      <trkpt lat="43.43927" lon="6.37298">
        <ele>79.93</ele>
        <time>2015-10-01T14:40:21Z</time>
      </trkpt>
      <trkpt lat="43.4393" lon="6.37321">
        <ele>79.93</ele>
        <time>2015-10-01T14:40:35Z</time>
      </trkpt>
      <trkpt lat="43.43932" lon="6.37329">
        <ele>79.93</ele>
        <time>2015-10-01T14:40:41Z</time>
      </trkpt>
      <trkpt lat="43.43938" lon="6.37345">
        <ele>79.93</ele>
        <time>2015-10-01T14:40:54Z</time>
      </trkpt>
      <trkpt lat="43.4394" lon="6.37349">
        <ele>79.93</ele>
        <time>2015-10-01T14:40:57Z</time>
      </trkpt>
      <trkpt lat="43.43947" lon="6.37368">
        <ele>79.93</ele>
        <time>2015-10-01T14:41:11Z</time>
      </trkpt>
      <trkpt lat="43.43953" lon="6.37386">
        <ele>79.93</ele>
        <time>2015-10-01T14:41:24Z</time>
      </trkpt>
      <trkpt lat="43.4396" lon="6.37407">
        <ele>79.93</ele>
        <time>2015-10-01T14:41:38Z</time>
      </trkpt>
      <trkpt lat="43.43967" lon="6.37428">
        <ele>79.93</ele>
        <time>2015-10-01T14:41:53Z</time>
      </trkpt>
      <trkpt lat="43.43973" lon="6.37452">
        <ele>79.93</ele>
        <time>2015-10-01T14:42:09Z</time>
      </trkpt>
      <trkpt lat="43.4398" lon="6.37478">
        <ele>80.41</ele>
        <time>2015-10-01T14:42:26Z</time>
      </trkpt>
      <trkpt lat="43.43983" lon="6.37498">
        <ele>80.89</ele>
        <time>2015-10-01T14:42:41Z</time>
      </trkpt>
      <trkpt lat="43.43976" lon="6.37516">
        <ele>81.85</ele>
        <time>2015-10-01T14:42:55Z</time>
      </trkpt>
      <trkpt lat="43.43968" lon="6.37532">
        <ele>82.33</ele>
        <time>2015-10-01T14:43:07Z</time>
      </trkpt>
      <trkpt lat="43.43966" lon="6.37534">
        <ele>82.33</ele>
        <time>2015-10-01T14:43:23Z</time>
      </trkpt>
      <trkpt lat="43.43965" lon="6.37534">
        <ele>83.29</ele>
        <time>2015-10-01T14:43:34Z</time>
      </trkpt>
      <trkpt lat="43.43954" lon="6.37535">
        <ele>82.33</ele>
        <time>2015-10-01T14:43:49Z</time>
      </trkpt>
      <trkpt lat="43.43952" lon="6.37536">
        <ele>82.33</ele>
        <time>2015-10-01T14:44:03Z</time>
      </trkpt>
      <trkpt lat="43.43946" lon="6.37542">
        <ele>82.81</ele>
        <time>2015-10-01T14:44:17Z</time>
      </trkpt>
      <trkpt lat="43.43945" lon="6.3755">
        <ele>82.81</ele>
        <time>2015-10-01T14:44:22Z</time>
      </trkpt>
      <trkpt lat="43.43947" lon="6.37563">
        <ele>83.77</ele>
        <time>2015-10-01T14:44:30Z</time>
      </trkpt>
      <trkpt lat="43.43952" lon="6.3758">
        <ele>84.25</ele>
        <time>2015-10-01T14:44:39Z</time>
      </trkpt>
      <trkpt lat="43.43952" lon="6.37582">
        <ele>84.25</ele>
        <time>2015-10-01T14:44:41Z</time>
      </trkpt>
      <trkpt lat="43.43954" lon="6.37596">
        <ele>85.21</ele>
        <time>2015-10-01T14:44:52Z</time>
      </trkpt>
      <trkpt lat="43.43952" lon="6.37615">
        <ele>86.18</ele>
        <time>2015-10-01T14:45:05Z</time>
      </trkpt>
      <trkpt lat="43.43952" lon="6.37617">
        <ele>86.18</ele>
        <time>2015-10-01T14:45:06Z</time>
      </trkpt>
      <trkpt lat="43.43952" lon="6.37626">
        <ele>86.18</ele>
        <time>2015-10-01T14:45:13Z</time>
      </trkpt>
      <trkpt lat="43.43952" lon="6.37633">
        <ele>86.66</ele>
        <time>2015-10-01T14:45:18Z</time>
      </trkpt>
      <trkpt lat="43.43951" lon="6.37659">
        <ele>87.14</ele>
        <time>2015-10-01T14:45:33Z</time>
      </trkpt>
      <trkpt lat="43.43952" lon="6.37661">
        <ele>87.62</ele>
        <time>2015-10-01T14:45:35Z</time>
      </trkpt>
      <trkpt lat="43.43951" lon="6.37665">
        <ele>87.62</ele>
        <time>2015-10-01T14:45:38Z</time>
      </trkpt>
      <trkpt lat="43.43947" lon="6.37679">
        <ele>88.1</ele>
        <time>2015-10-01T14:45:48Z</time>
      </trkpt>
      <trkpt lat="43.43945" lon="6.37685">
        <ele>88.1</ele>
        <time>2015-10-01T14:45:53Z</time>
      </trkpt>
      <trkpt lat="43.43943" lon="6.37692">
        <ele>88.58</ele>
        <time>2015-10-01T14:45:58Z</time>
      </trkpt>
      <trkpt lat="43.43941" lon="6.37713">
        <ele>90.02</ele>
        <time>2015-10-01T14:46:13Z</time>
      </trkpt>
      <trkpt lat="43.43937" lon="6.3773">
        <ele>90.98</ele>
        <time>2015-10-01T14:46:28Z</time>
      </trkpt>
      <trkpt lat="43.43935" lon="6.37736">
        <ele>90.98</ele>
        <time>2015-10-01T14:46:33Z</time>
      </trkpt>
      <trkpt lat="43.43932" lon="6.37758">
        <ele>92.42</ele>
        <time>2015-10-01T14:46:50Z</time>
      </trkpt>
      <trkpt lat="43.43931" lon="6.37761">
        <ele>92.9</ele>
        <time>2015-10-01T14:46:53Z</time>
      </trkpt>
      <trkpt lat="43.43927" lon="6.37779">
        <ele>94.35</ele>
        <time>2015-10-01T14:47:07Z</time>
      </trkpt>
      <trkpt lat="43.43926" lon="6.37789">
        <ele>95.31</ele>
        <time>2015-10-01T14:47:16Z</time>
      </trkpt>
      <trkpt lat="43.43923" lon="6.37809">
        <ele>96.75</ele>
        <time>2015-10-01T14:47:31Z</time>
      </trkpt>
      <trkpt lat="43.43922" lon="6.37815">
        <ele>97.23</ele>
        <time>2015-10-01T14:47:37Z</time>
      </trkpt>
      <trkpt lat="43.43921" lon="6.37828">
        <ele>98.19</ele>
        <time>2015-10-01T14:47:45Z</time>
      </trkpt>
      <trkpt lat="43.43921" lon="6.37852">
        <ele>99.15</ele>
        <time>2015-10-01T14:48:00Z</time>
      </trkpt>
      <trkpt lat="43.43922" lon="6.37878">
        <ele>100.6</ele>
        <time>2015-10-01T14:48:17Z</time>
      </trkpt>
      <trkpt lat="43.43923" lon="6.37886">
        <ele>100.6</ele>
        <time>2015-10-01T14:48:22Z</time>
      </trkpt>
      <trkpt lat="43.43924" lon="6.37894">
        <ele>101.08</ele>
        <time>2015-10-01T14:48:34Z</time>
      </trkpt>
      <trkpt lat="43.43925" lon="6.379">
        <ele>101.56</ele>
        <time>2015-10-01T14:48:50Z</time>
      </trkpt>
      <trkpt lat="43.43925" lon="6.37904">
        <ele>101.56</ele>
        <time>2015-10-01T14:49:01Z</time>
      </trkpt>
      <trkpt lat="43.43928" lon="6.37923">
        <ele>103</ele>
        <time>2015-10-01T14:49:15Z</time>
      </trkpt>
      <trkpt lat="43.4393" lon="6.37934">
        <ele>104.44</ele>
        <time>2015-10-01T14:49:28Z</time>
      </trkpt>
      <trkpt lat="43.43929" lon="6.3794">
        <ele>104.92</ele>
        <time>2015-10-01T14:49:33Z</time>
      </trkpt>
      <trkpt lat="43.4393" lon="6.37952">
        <ele>106.84</ele>
        <time>2015-10-01T14:49:43Z</time>
      </trkpt>
      <trkpt lat="43.43931" lon="6.37967">
        <ele>108.77</ele>
        <time>2015-10-01T14:49:56Z</time>
      </trkpt>
      <trkpt lat="43.43932" lon="6.37979">
        <ele>110.69</ele>
        <time>2015-10-01T14:50:08Z</time>
      </trkpt>
      <trkpt lat="43.43935" lon="6.37998">
        <ele>113.09</ele>
        <time>2015-10-01T14:50:21Z</time>
      </trkpt>
      <trkpt lat="43.43933" lon="6.38004">
        <ele>113.57</ele>
        <time>2015-10-01T14:50:27Z</time>
      </trkpt>
      <trkpt lat="43.43937" lon="6.38021">
        <ele>115.5</ele>
        <time>2015-10-01T14:50:40Z</time>
      </trkpt>
      <trkpt lat="43.43938" lon="6.38027">
        <ele>115.98</ele>
        <time>2015-10-01T14:50:43Z</time>
      </trkpt>
      <trkpt lat="43.43942" lon="6.38037">
        <ele>116.46</ele>
        <time>2015-10-01T14:50:49Z</time>
      </trkpt>
      <trkpt lat="43.43955" lon="6.38053">
        <ele>117.9</ele>
        <time>2015-10-01T14:51:04Z</time>
      </trkpt>
      <trkpt lat="43.4397" lon="6.38061">
        <ele>118.38</ele>
        <time>2015-10-01T14:51:17Z</time>
      </trkpt>
      <trkpt lat="43.43978" lon="6.38065">
        <ele>118.86</ele>
        <time>2015-10-01T14:51:24Z</time>
      </trkpt>
      <trkpt lat="43.43981" lon="6.38067">
        <ele>118.86</ele>
        <time>2015-10-01T14:51:27Z</time>
      </trkpt>
      <trkpt lat="43.43996" lon="6.38069">
        <ele>119.82</ele>
        <time>2015-10-01T14:51:41Z</time>
      </trkpt>
      <trkpt lat="43.44006" lon="6.38072">
        <ele>120.78</ele>
        <time>2015-10-01T14:51:50Z</time>
      </trkpt>
      <trkpt lat="43.44022" lon="6.38078">
        <ele>122.22</ele>
        <time>2015-10-01T14:52:05Z</time>
      </trkpt>
      <trkpt lat="43.44035" lon="6.38083">
        <ele>123.67</ele>
        <time>2015-10-01T14:52:18Z</time>
      </trkpt>
      <trkpt lat="43.44037" lon="6.38083">
        <ele>123.67</ele>
        <time>2015-10-01T14:52:20Z</time>
      </trkpt>
      <trkpt lat="43.44047" lon="6.38085">
        <ele>124.15</ele>
        <time>2015-10-01T14:52:30Z</time>
      </trkpt>
      <trkpt lat="43.44052" lon="6.38088">
        <ele>124.63</ele>
        <time>2015-10-01T14:52:34Z</time>
      </trkpt>
      <trkpt lat="43.44067" lon="6.38098">
        <ele>125.59</ele>
        <time>2015-10-01T14:52:49Z</time>
      </trkpt>
      <trkpt lat="43.4408" lon="6.38099">
        <ele>127.51</ele>
        <time>2015-10-01T14:53:03Z</time>
      </trkpt>
      <trkpt lat="43.44089" lon="6.38101">
        <ele>128.95</ele>
        <time>2015-10-01T14:53:13Z</time>
      </trkpt>
      <trkpt lat="43.44095" lon="6.38105">
        <ele>129.43</ele>
        <time>2015-10-01T14:53:18Z</time>
      </trkpt>
      <trkpt lat="43.4411" lon="6.38117">
        <ele>130.4</ele>
        <time>2015-10-01T14:53:33Z</time>
      </trkpt>
      <trkpt lat="43.44113" lon="6.38119">
        <ele>130.4</ele>
        <time>2015-10-01T14:53:36Z</time>
      </trkpt>
      <trkpt lat="43.44117" lon="6.38126">
        <ele>130.4</ele>
        <time>2015-10-01T14:53:43Z</time>
      </trkpt>
      <trkpt lat="43.44119" lon="6.38131">
        <ele>130.88</ele>
        <time>2015-10-01T14:53:47Z</time>
      </trkpt>
      <trkpt lat="43.44119" lon="6.38133">
        <ele>130.88</ele>
        <time>2015-10-01T14:53:49Z</time>
      </trkpt>
      <trkpt lat="43.4412" lon="6.38148">
        <ele>131.36</ele>
        <time>2015-10-01T14:54:00Z</time>
      </trkpt>
      <trkpt lat="43.44133" lon="6.38167">
        <ele>132.32</ele>
        <time>2015-10-01T14:54:16Z</time>
      </trkpt>
      <trkpt lat="43.44148" lon="6.38182">
        <ele>132.8</ele>
        <time>2015-10-01T14:54:32Z</time>
      </trkpt>
      <trkpt lat="43.44163" lon="6.38189">
        <ele>133.28</ele>
        <time>2015-10-01T14:54:46Z</time>
      </trkpt>
      <trkpt lat="43.44164" lon="6.3819">
        <ele>133.28</ele>
        <time>2015-10-01T14:54:47Z</time>
      </trkpt>
      <trkpt lat="43.44178" lon="6.382">
        <ele>134.72</ele>
        <time>2015-10-01T14:55:01Z</time>
      </trkpt>
      <trkpt lat="43.44191" lon="6.38208">
        <ele>136.16</ele>
        <time>2015-10-01T14:55:14Z</time>
      </trkpt>
      <trkpt lat="43.44205" lon="6.38213">
        <ele>137.61</ele>
        <time>2015-10-01T14:55:27Z</time>
      </trkpt>
      <trkpt lat="43.44217" lon="6.38214">
        <ele>139.05</ele>
        <time>2015-10-01T14:55:38Z</time>
      </trkpt>
      <trkpt lat="43.4423" lon="6.38211">
        <ele>140.49</ele>
        <time>2015-10-01T14:55:51Z</time>
      </trkpt>
      <trkpt lat="43.44243" lon="6.38205">
        <ele>141.45</ele>
        <time>2015-10-01T14:56:05Z</time>
      </trkpt>
      <trkpt lat="43.44258" lon="6.38195">
        <ele>141.93</ele>
        <time>2015-10-01T14:56:19Z</time>
      </trkpt>
      <trkpt lat="43.44271" lon="6.3819">
        <ele>142.41</ele>
        <time>2015-10-01T14:56:33Z</time>
      </trkpt>
      <trkpt lat="43.44284" lon="6.38182">
        <ele>142.89</ele>
        <time>2015-10-01T14:56:47Z</time>
      </trkpt>
      <trkpt lat="43.44296" lon="6.38175">
        <ele>143.85</ele>
        <time>2015-10-01T14:56:58Z</time>
      </trkpt>
      <trkpt lat="43.44313" lon="6.38165">
        <ele>145.78</ele>
        <time>2015-10-01T14:57:14Z</time>
      </trkpt>
      <trkpt lat="43.44324" lon="6.38157">
        <ele>147.22</ele>
        <time>2015-10-01T14:57:27Z</time>
      </trkpt>
      <trkpt lat="43.44341" lon="6.38151">
        <ele>148.66</ele>
        <time>2015-10-01T14:57:42Z</time>
      </trkpt>
      <trkpt lat="43.44354" lon="6.38144">
        <ele>150.58</ele>
        <time>2015-10-01T14:57:56Z</time>
      </trkpt>
      <trkpt lat="43.44358" lon="6.38141">
        <ele>150.58</ele>
        <time>2015-10-01T14:58:01Z</time>
      </trkpt>
      <trkpt lat="43.44365" lon="6.38136">
        <ele>151.54</ele>
        <time>2015-10-01T14:58:09Z</time>
      </trkpt>
      <trkpt lat="43.4438" lon="6.38128">
        <ele>153.47</ele>
        <time>2015-10-01T14:58:24Z</time>
      </trkpt>
      <trkpt lat="43.44393" lon="6.38125">
        <ele>154.91</ele>
        <time>2015-10-01T14:58:37Z</time>
      </trkpt>
      <trkpt lat="43.44407" lon="6.3812">
        <ele>156.35</ele>
        <time>2015-10-01T14:58:50Z</time>
      </trkpt>
      <trkpt lat="43.44419" lon="6.38118">
        <ele>157.79</ele>
        <time>2015-10-01T14:59:02Z</time>
      </trkpt>
      <trkpt lat="43.4443" lon="6.38118">
        <ele>158.75</ele>
        <time>2015-10-01T14:59:14Z</time>
      </trkpt>
      <trkpt lat="43.44438" lon="6.38119">
        <ele>160.2</ele>
        <time>2015-10-01T14:59:27Z</time>
      </trkpt>
      <trkpt lat="43.4444" lon="6.38116">
        <ele>160.2</ele>
        <time>2015-10-01T14:59:40Z</time>
      </trkpt>
      <trkpt lat="43.44442" lon="6.38109">
        <ele>160.68</ele>
        <time>2015-10-01T14:59:52Z</time>
      </trkpt>
      <trkpt lat="43.44443" lon="6.38108">
        <ele>160.68</ele>
        <time>2015-10-01T14:59:54Z</time>
      </trkpt>
      <trkpt lat="43.44457" lon="6.38095">
        <ele>160.2</ele>
        <time>2015-10-01T15:00:08Z</time>
      </trkpt>
      <trkpt lat="43.44459" lon="6.38093">
        <ele>160.2</ele>
        <time>2015-10-01T15:00:11Z</time>
      </trkpt>
      <trkpt lat="43.44461" lon="6.38081">
        <ele>160.68</ele>
        <time>2015-10-01T15:00:27Z</time>
      </trkpt>
      <trkpt lat="43.4446" lon="6.3808">
        <ele>161.64</ele>
        <time>2015-10-01T15:00:45Z</time>
      </trkpt>
      <trkpt lat="43.44459" lon="6.3808">
        <ele>160.68</ele>
        <time>2015-10-01T15:00:47Z</time>
      </trkpt>
      <trkpt lat="43.44456" lon="6.38078">
        <ele>161.16</ele>
        <time>2015-10-01T15:01:10Z</time>
      </trkpt>
    </trkseg>
  </trk>
</gpx>